Darstellungsparameter: Aktuell verwendete Einstellungen:
Skalierung der Graphiken ... ?
xyx+y,   Skalierungsfaktor:      Skalierung: Modus: x, Faktor: 1
Darstellungszeitraum ... ?
Vom - - bis: - -   Zeitraum: 22.05.2009 - 04.06.2009
Min/Max/Avg-Anzeige ... ?
Zeige MMA aktuell
Zeige MMA Monat
Zeige MMA alles
Zeige --A aktuell
Zeige --A Monat
Zeige --A alles
Keine MMA-Anzeige
MMA:
Keine MMA-Graphiken
MMA-Basis: 22.05.2009 - 04.06.2009
Quicknavigation für Darstellung... ?
Tage:      1T, 2T, 3T, 5T -1T -2T -3T -5T +1T +2T +3T +5T
Wochen: 1W, 2W, 3W -1W -2W -3W +1W +2W +3W
Monate: 1M, 3M, 6M -1M -3M -6M +1M +3M +6M
Jahre:    1J, 3J, 5J, 10J -1J -3J -5J -10J +1J +3J +5J +10J
Nutze für die Darstellung ... ?
Originaldaten oder Mittelwerte auf ...
Stundenbasis Tagesbasis Wochenbasis
Monatsbasis Jahresbasis      Datenbasis: Original-Daten
Darstellen als:
Statistik (Auto) Statistik J:M      Darstellung:
Zur Graphik,    zurück zur Übersicht aller Sensoren.
 
Tabellarische Datenbersicht: ?
 
Sensor: Nr:Datum:Temp:Abs-Feuchte:Windchill:Wind:
Aussen-T/F 1 22-05-2009 00:06:54 13.5 C 9.83 g/m*3 13.5 C 0 km/h
2 22-05-2009 00:18:55 13.4 C 9.65 g/m*3 13.4 C 0 km/h
3 22-05-2009 00:30:54 13.3 C 9.7 g/m*3 13.3 C 0 km/h
4 22-05-2009 00:42:54 13.3 C 9.7 g/m*3 13.3 C 0 km/h
5 22-05-2009 00:54:54 13.4 C 9.88 g/m*3 13.4 C 0 km/h
6 22-05-2009 01:06:53 13.3 C 9.82 g/m*3 13.3 C 0 km/h
7 22-05-2009 01:18:54 13.4 C 9.88 g/m*3 13.4 C 0 km/h
8 22-05-2009 01:30:53 13.2 C 9.64 g/m*3 13.2 C 0 km/h
9 22-05-2009 01:42:53 13.1 C 9.47 g/m*3 13.1 C 0 km/h
10 22-05-2009 01:54:53 13.3 C 9.7 g/m*3 13.3 C 0 km/h
11 22-05-2009 02:06:53 13.4 C 9.65 g/m*3 13.4 C 0 km/h
12 22-05-2009 02:18:53 13.4 C 9.42 g/m*3 13.4 C 0 km/h
13 22-05-2009 02:30:53 13.5 C 9.36 g/m*3 13.5 C 0 km/h
14 22-05-2009 02:42:53 13.3 C 9.24 g/m*3 13.3 C 0 km/h
15 22-05-2009 02:56:01 13.2 C 9.19 g/m*3 13.2 C 0 km/h
16 22-05-2009 03:08:01 13.1 C 9.01 g/m*3 13.1 C 0 km/h
17 22-05-2009 03:20:02 13.2 C 9.07 g/m*3 13.2 C 0 km/h
18 22-05-2009 03:32:01 13.4 C 9.18 g/m*3 13.4 C 0 km/h
19 22-05-2009 03:44:01 13.5 C 9.24 g/m*3 13.5 C 0 km/h
20 22-05-2009 03:56:01 13.2 C 9.19 g/m*3 13.2 C 0 km/h
21 22-05-2009 04:07:53 13.1 C 9.24 g/m*3 13.1 C 0 km/h
22 22-05-2009 04:19:54 13 C 9.07 g/m*3 13 C 0 km/h
23 22-05-2009 04:31:54 13.1 C 9.01 g/m*3 13.1 C 0 km/h
24 22-05-2009 04:43:54 13 C 8.85 g/m*3 13 C 0 km/h
25 22-05-2009 04:55:54 12.8 C 8.85 g/m*3 12.8 C 0 km/h
Sensor: Nr:Datum:Temp:Abs-Feuchte:Windchill:Wind:
Aussen-T/F 26 22-05-2009 05:07:53 12.9 C 8.9 g/m*3 12.9 C 0 km/h
27 22-05-2009 05:19:53 13 C 8.96 g/m*3 13 C 0 km/h
28 22-05-2009 05:31:53 12.9 C 8.9 g/m*3 12.9 C 0 km/h
29 22-05-2009 05:43:53 13 C 8.85 g/m*3 13 C 0 km/h
30 22-05-2009 05:55:53 12.8 C 8.74 g/m*3 12.8 C 0 km/h
31 22-05-2009 06:07:53 12.7 C 8.79 g/m*3 12.7 C 0 km/h
32 22-05-2009 06:19:52 12.4 C 8.52 g/m*3 12.4 C 0 km/h
33 22-05-2009 06:31:52 12.5 C 8.58 g/m*3 12.5 C 0 km/h
34 22-05-2009 06:43:52 12.5 C 8.69 g/m*3 12.5 C 0 km/h
35 22-05-2009 06:55:52 12.7 C 8.91 g/m*3 12.7 C 0 km/h
36 22-05-2009 07:07:52 13.2 C 9.19 g/m*3 13.2 C 0 km/h
37 22-05-2009 07:19:52 13.5 C 9.47 g/m*3 13.5 C 0 km/h
38 22-05-2009 07:31:52 13.7 C 9.35 g/m*3 13.7 C 0 km/h
39 22-05-2009 07:43:52 13.9 C 9.23 g/m*3 13.9 C 0 km/h
40 22-05-2009 07:55:52 13.8 C 9.17 g/m*3 13.8 C 0 km/h
41 22-05-2009 08:07:51 13.8 C 9.17 g/m*3 13.8 C 0 km/h
42 22-05-2009 08:19:51 14.1 C 9.22 g/m*3 14.1 C 0 km/h
43 22-05-2009 08:31:51 14.5 C 9.58 g/m*3 14.5 C 0 km/h
44 22-05-2009 08:43:51 14.9 C 9.05 g/m*3 14.9 C 0 km/h
45 22-05-2009 08:55:51 15.3 C 8.49 g/m*3 15.3 C 0 km/h
46 22-05-2009 09:07:51 16 C 8.17 g/m*3 16 C 0 km/h
47 22-05-2009 09:19:51 16.3 C 8.32 g/m*3 16.3 C 0 km/h
48 22-05-2009 09:31:50 16.5 C 8 g/m*3 16.5 C 0 km/h
49 22-05-2009 09:43:51 17.1 C 7.42 g/m*3 17.1 C 0 km/h
50 22-05-2009 09:55:51 16.9 C 6.62 g/m*3 16.9 C 0 km/h
Sensor: Nr:Datum:Temp:Abs-Feuchte:Windchill:Wind:
Aussen-T/F 51 22-05-2009 10:07:50 17.2 C 6.59 g/m*3 17.2 C 0 km/h
52 22-05-2009 10:19:51 17.7 C 6.49 g/m*3 17.7 C 0 km/h
53 22-05-2009 10:31:51 17.6 C 6.75 g/m*3 17.6 C 0 km/h
54 22-05-2009 10:43:50 18.7 C 7.68 g/m*3 18.7 C 0 km/h
55 22-05-2009 10:55:50 19.5 C 7.22 g/m*3 19.5 C 0 km/h
56 22-05-2009 11:07:50 20 C 6.91 g/m*3 20 C 0 km/h
57 22-05-2009 11:19:49 20.3 C 7.03 g/m*3 20.3 C 0 km/h
58 22-05-2009 11:31:50 20.7 C 7.2 g/m*3 20.7 C 0 km/h
59 22-05-2009 11:43:49 20.7 C 6.66 g/m*3 20.7 C 0 km/h
60 22-05-2009 11:55:49 20.2 C 6.29 g/m*3 20.2 C 0 km/h
61 22-05-2009 12:07:49 20.2 C 6.47 g/m*3 20.2 C 0 km/h
62 22-05-2009 12:19:49 20 C 6.39 g/m*3 20 C 0 km/h
63 22-05-2009 12:31:49 21.7 C 6.68 g/m*3 21.7 C 0 km/h
64 22-05-2009 12:43:49 21.7 C 6.29 g/m*3 21.7 C 0 km/h
65 22-05-2009 12:55:49 22.3 C 5.53 g/m*3 22.3 C 0 km/h
66 22-05-2009 13:07:49 22.8 C 4.47 g/m*3 22.8 C 0 km/h
67 22-05-2009 13:19:49 23.1 C 4.13 g/m*3 23.1 C 0 km/h
68 22-05-2009 13:31:48 22.4 C 3.97 g/m*3 22.4 C 0 km/h
69 22-05-2009 13:43:49 22.5 C 5.19 g/m*3 22.5 C 0 km/h
70 22-05-2009 13:55:49 22.7 C 4.65 g/m*3 22.7 C 0 km/h
71 22-05-2009 14:07:48 23 C 4.11 g/m*3 23 C 0 km/h
72 22-05-2009 14:19:48 22.9 C 4.09 g/m*3 22.9 C 0 km/h
73 22-05-2009 14:31:48 22.9 C 4.09 g/m*3 22.9 C 0 km/h
74 22-05-2009 14:43:48 22.9 C 4.09 g/m*3 22.9 C 0 km/h
75 22-05-2009 14:55:48 23.2 C 4.16 g/m*3 23.2 C 0 km/h
Sensor: Nr:Datum:Temp:Abs-Feuchte:Windchill:Wind:
Aussen-T/F 76 22-05-2009 15:07:48 23.8 C 4.73 g/m*3 23.8 C 0 km/h
77 22-05-2009 15:19:47 23.6 C 4.25 g/m*3 23.6 C 0 km/h
78 22-05-2009 15:31:48 23.8 C 4.3 g/m*3 23.8 C 0 km/h
79 22-05-2009 15:43:47 24.5 C 4.48 g/m*3 24.5 C 0 km/h
80 22-05-2009 15:55:47 23.8 C 4.3 g/m*3 23.8 C 0 km/h
81 22-05-2009 16:07:47 24.7 C 4.53 g/m*3 24.7 C 0 km/h
82 22-05-2009 16:19:46 24.4 C 4.45 g/m*3 24.4 C 0 km/h
83 22-05-2009 16:31:47 22.5 C 3.99 g/m*3 22.5 C 0 km/h
84 22-05-2009 16:43:46 21.9 C 4.05 g/m*3 21.9 C 0 km/h
85 22-05-2009 16:55:46 23 C 4.32 g/m*3 23 C 0 km/h
86 22-05-2009 17:07:47 23.1 C 4.13 g/m*3 23.1 C 0 km/h
87 22-05-2009 17:19:46 22.8 C 4.27 g/m*3 22.8 C 0 km/h
88 22-05-2009 17:31:46 23.6 C 4.25 g/m*3 23.6 C 0 km/h
89 22-05-2009 17:43:45 23.8 C 4.3 g/m*3 23.8 C 0 km/h
90 22-05-2009 17:55:45 23.7 C 4.28 g/m*3 23.7 C 0 km/h
91 22-05-2009 18:07:46 24.1 C 4.38 g/m*3 24.1 C 0 km/h
92 22-05-2009 18:19:46 24.5 C 4.48 g/m*3 24.5 C 0 km/h
93 22-05-2009 18:31:45 23.9 C 4.33 g/m*3 23.9 C 0 km/h
94 22-05-2009 18:43:46 23.2 C 4.16 g/m*3 23.2 C 0 km/h
95 22-05-2009 18:55:46 24.4 C 4.45 g/m*3 24.4 C 0 km/h
96 22-05-2009 19:07:45 23.7 C 4.28 g/m*3 23.7 C 0 km/h
97 22-05-2009 19:19:45 24.1 C 4.38 g/m*3 24.1 C 0 km/h
98 22-05-2009 19:31:44 23.4 C 4.21 g/m*3 23.4 C 0 km/h
99 22-05-2009 19:43:45 23.8 C 4.3 g/m*3 23.8 C 0 km/h
100 22-05-2009 19:55:45 23.8 C 4.3 g/m*3 23.8 C 0 km/h
Sensor: Nr:Datum:Temp:Abs-Feuchte:Windchill:Wind:
Aussen-T/F 101 22-05-2009 20:07:44 22.8 C 4.06 g/m*3 22.8 C 0 km/h
102 22-05-2009 20:19:44 21.8 C 3.84 g/m*3 21.8 C 0 km/h
103 22-05-2009 20:31:45 21.2 C 4.26 g/m*3 21.2 C 0 km/h
104 22-05-2009 20:43:44 20.3 C 4.22 g/m*3 20.3 C 0 km/h
105 22-05-2009 20:55:44 19.6 C 4.56 g/m*3 19.6 C 0 km/h
106 22-05-2009 21:07:44 19.3 C 4.98 g/m*3 19.3 C 0 km/h
107 22-05-2009 21:19:44 18.6 C 4.62 g/m*3 18.6 C 0 km/h
108 22-05-2009 21:31:44 18.3 C 5 g/m*3 18.3 C 0 km/h
109 22-05-2009 21:43:44 18.1 C 4.64 g/m*3 18.1 C 0 km/h
110 22-05-2009 21:55:44 17.7 C 4.68 g/m*3 17.7 C 0 km/h
111 22-05-2009 22:07:43 17.5 C 4.92 g/m*3 17.5 C 0 km/h
112 22-05-2009 22:19:44 17.2 C 4.69 g/m*3 17.2 C 0 km/h
113 22-05-2009 22:32:44 16.8 C 5 g/m*3 16.8 C 0 km/h
114 22-05-2009 22:44:44 16.3 C 4.99 g/m*3 16.3 C 0 km/h
115 22-05-2009 22:56:44 16.1 C 5.21 g/m*3 16.1 C 0 km/h
116 22-05-2009 23:08:44 15.9 C 5.42 g/m*3 15.9 C 0 km/h
117 22-05-2009 23:20:44 15.5 C 5.55 g/m*3 15.5 C 0 km/h
118 22-05-2009 23:32:44 14.8 C 5.83 g/m*3 14.8 C 0 km/h
119 22-05-2009 23:44:44 14.4 C 5.93 g/m*3 14.4 C 0 km/h
120 22-05-2009 23:56:44 14.2 C 5.86 g/m*3 14.2 C 0 km/h
121 23-05-2009 00:08:44 13.8 C 5.96 g/m*3 13.8 C 0 km/h
122 23-05-2009 00:20:45 13.5 C 6.08 g/m*3 13.5 C 0 km/h
123 23-05-2009 00:32:45 13.4 C 6.16 g/m*3 13.4 C 0 km/h
124 23-05-2009 00:44:45 13.2 C 6.2 g/m*3 13.2 C 0 km/h
125 23-05-2009 00:56:45 13 C 6.12 g/m*3 13 C 0 km/h
Sensor: Nr:Datum:Temp:Abs-Feuchte:Windchill:Wind:
Aussen-T/F 126 23-05-2009 01:08:45 12.9 C 6.31 g/m*3 12.9 C 0 km/h
127 23-05-2009 01:20:45 12.5 C 6.27 g/m*3 12.5 C 0 km/h
128 23-05-2009 01:32:45 12.3 C 6.3 g/m*3 12.3 C 0 km/h
129 23-05-2009 01:44:45 12.1 C 6.33 g/m*3 12.1 C 0 km/h
130 23-05-2009 01:56:45 12 C 6.5 g/m*3 12 C 0 km/h
131 23-05-2009 02:08:45 11.8 C 6.53 g/m*3 11.8 C 0 km/h
132 23-05-2009 02:20:45 11.5 C 6.51 g/m*3 11.5 C 0 km/h
133 23-05-2009 02:32:45 11.1 C 6.55 g/m*3 11.1 C 0 km/h
134 23-05-2009 02:44:45 10.9 C 6.66 g/m*3 10.9 C 0 km/h
135 23-05-2009 02:56:45 10.6 C 6.64 g/m*3 10.6 C 0 km/h
136 23-05-2009 03:08:45 10.6 C 6.73 g/m*3 10.6 C 0 km/h
137 23-05-2009 03:20:45 10.5 C 6.79 g/m*3 10.5 C 0 km/h
138 23-05-2009 03:32:45 10.4 C 6.65 g/m*3 10.4 C 0 km/h
139 23-05-2009 03:44:45 10.3 C 6.61 g/m*3 10.3 C 0 km/h
140 23-05-2009 03:56:45 10.2 C 6.66 g/m*3 10.2 C 0 km/h
141 23-05-2009 04:08:46 10.1 C 6.62 g/m*3 10.1 C 0 km/h
142 23-05-2009 04:20:46 9.9 C 6.72 g/m*3 9.9 C 0 km/h
143 23-05-2009 04:32:46 9.6 C 6.6 g/m*3 9.6 C 0 km/h
144 23-05-2009 04:44:46 9.5 C 6.64 g/m*3 9.5 C 0 km/h
145 23-05-2009 04:56:46 9.5 C 6.64 g/m*3 9.5 C 0 km/h
146 23-05-2009 05:08:46 9.4 C 6.69 g/m*3 9.4 C 0 km/h
147 23-05-2009 05:20:46 9.2 C 6.61 g/m*3 9.2 C 0 km/h
148 23-05-2009 05:32:46 9.2 C 6.7 g/m*3 9.2 C 0 km/h
149 23-05-2009 05:44:46 9.1 C 6.57 g/m*3 9.1 C 0 km/h
150 23-05-2009 05:56:46 9 C 6.52 g/m*3 9 C 0 km/h
Sensor: Nr:Datum:Temp:Abs-Feuchte:Windchill:Wind:
Aussen-T/F 151 23-05-2009 06:08:46 8.8 C 6.7 g/m*3 8.8 C 0 km/h
152 23-05-2009 06:20:46 8.9 C 6.83 g/m*3 8.9 C 0 km/h
153 23-05-2009 06:32:46 9 C 6.88 g/m*3 9 C 0 km/h
154 23-05-2009 06:44:46 9 C 6.88 g/m*3 9 C 0 km/h
155 23-05-2009 06:56:46 9 C 6.88 g/m*3 9 C 0 km/h
156 23-05-2009 07:08:44 9.2 C 6.97 g/m*3 9.2 C 0 km/h
157 23-05-2009 07:20:44 9.1 C 6.92 g/m*3 9.1 C 0 km/h
158 23-05-2009 07:32:45 9.2 C 6.97 g/m*3 9.2 C 0 km/h
159 23-05-2009 07:44:44 9.6 C 7.15 g/m*3 9.6 C 0 km/h
160 23-05-2009 07:56:44 9.8 C 6.96 g/m*3 9.8 C 0 km/h
161 23-05-2009 08:08:44 10.2 C 7.04 g/m*3 10.2 C 0 km/h
162 23-05-2009 08:20:44 10.6 C 7.12 g/m*3 10.6 C 0 km/h
163 23-05-2009 08:32:44 11 C 7.11 g/m*3 11 C 0 km/h
164 23-05-2009 08:44:43 11.4 C 7.29 g/m*3 11.4 C 0 km/h
165 23-05-2009 08:56:43 12 C 7.14 g/m*3 12 C 0 km/h
166 23-05-2009 09:08:44 12.6 C 7.3 g/m*3 12.6 C 0 km/h
167 23-05-2009 09:20:43 13.2 C 7.23 g/m*3 13.2 C 0 km/h
168 23-05-2009 09:32:43 13.8 C 7.39 g/m*3 13.8 C 0 km/h
169 23-05-2009 09:44:43 14.2 C 7.33 g/m*3 14.2 C 0 km/h
170 23-05-2009 09:56:43 15.2 C 7.66 g/m*3 15.2 C 0 km/h
171 23-05-2009 10:08:43 16 C 7.77 g/m*3 16 C 0 km/h
172 23-05-2009 10:20:43 16.9 C 7.19 g/m*3 16.9 C 0 km/h
173 23-05-2009 10:32:02 17.8 C 6.68 g/m*3 17.8 C 0 km/h
174 23-05-2009 10:44:02 18.6 C 6.37 g/m*3 18.6 C 0 km/h
175 23-05-2009 10:56:02 18.9 C 5.99 g/m*3 18.9 C 0 km/h
Sensor: Nr:Datum:Temp:Abs-Feuchte:Windchill:Wind:
Aussen-T/F 176 23-05-2009 11:08:02 19.5 C 6.21 g/m*3 19.5 C 0 km/h
177 23-05-2009 11:20:02 19.7 C 6.11 g/m*3 19.7 C 0 km/h
178 23-05-2009 11:32:03 19.8 C 5.98 g/m*3 19.8 C 0 km/h
179 23-05-2009 11:44:03 20.8 C 6.16 g/m*3 20.8 C 0 km/h
180 23-05-2009 11:56:02 21.6 C 5.88 g/m*3 21.6 C 0 km/h
181 23-05-2009 12:08:02 22 C 5.43 g/m*3 22 C 0 km/h
182 23-05-2009 12:20:01 23.1 C 5.17 g/m*3 23.1 C 0 km/h
183 23-05-2009 12:32:01 23.9 C 5.41 g/m*3 23.9 C 0 km/h
184 23-05-2009 12:44:01 24.5 C 5.37 g/m*3 24.5 C 0 km/h
185 23-05-2009 12:56:01 24.2 C 4.84 g/m*3 24.2 C 0 km/h
186 23-05-2009 13:08:01 24.9 C 5.04 g/m*3 24.9 C 0 km/h
187 23-05-2009 13:20:01 26.2 C 4.92 g/m*3 26.2 C 0 km/h
188 23-05-2009 13:32:00 25.8 C 4.82 g/m*3 25.8 C 0 km/h
189 23-05-2009 13:44:00 26.8 C 5.09 g/m*3 26.8 C 0 km/h
190 23-05-2009 13:56:01 26.3 C 4.95 g/m*3 26.3 C 0 km/h
191 23-05-2009 14:08:00 26 C 5.11 g/m*3 26 C 0 km/h
192 23-05-2009 14:20:00 25.7 C 5.03 g/m*3 25.7 C 0 km/h
193 23-05-2009 14:32:00 26.1 C 4.9 g/m*3 26.1 C 0 km/h
194 23-05-2009 14:44:00 26.7 C 5.32 g/m*3 26.7 C 0 km/h
195 23-05-2009 14:56:00 27.4 C 5.26 g/m*3 27.4 C 0 km/h
196 23-05-2009 15:08:00 27.3 C 5.23 g/m*3 27.3 C 0 km/h
197 23-05-2009 15:20:59 27.6 C 5.32 g/m*3 27.6 C 0 km/h
198 23-05-2009 15:44:00 28.5 C 5.59 g/m*3 28.5 C 0 km/h
199 23-05-2009 15:44:59 29.3 C 5.84 g/m*3 29.3 C 0 km/h
200 23-05-2009 15:56:59 28.9 C 5.71 g/m*3 28.9 C 0 km/h
Sensor: Nr:Datum:Temp:Abs-Feuchte:Windchill:Wind:
Aussen-T/F 201 23-05-2009 16:08:59 29.9 C 6.03 g/m*3 29.9 C 0 km/h
202 23-05-2009 16:19:59 29.2 C 5.81 g/m*3 29.2 C 0 km/h
203 23-05-2009 16:32:59 30.1 C 6.1 g/m*3 30.1 C 0 km/h
204 23-05-2009 16:44:59 30.4 C 6.2 g/m*3 30.4 C 0 km/h
205 23-05-2009 16:56:59 30.9 C 6.37 g/m*3 30.9 C 0 km/h
206 23-05-2009 17:08:58 30.4 C 6.2 g/m*3 30.4 C 0 km/h
207 23-05-2009 17:20:59 30.8 C 6.33 g/m*3 30.8 C 0 km/h
208 23-05-2009 17:32:58 30.8 C 6.33 g/m*3 30.8 C 0 km/h
209 23-05-2009 17:44:59 31.2 C 6.47 g/m*3 31.2 C 0 km/h
210 23-05-2009 17:56:59 30.7 C 6.3 g/m*3 30.7 C 0 km/h
211 23-05-2009 18:08:58 30.1 C 6.1 g/m*3 30.1 C 0 km/h
212 23-05-2009 18:20:58 30.5 C 6.23 g/m*3 30.5 C 0 km/h
213 23-05-2009 18:32:57 29.9 C 6.03 g/m*3 29.9 C 0 km/h
214 23-05-2009 18:44:58 28.6 C 5.9 g/m*3 28.6 C 0 km/h
215 23-05-2009 18:56:59 28.3 C 7.74 g/m*3 28.3 C 0 km/h
216 23-05-2009 19:08:57 26.8 C 7.38 g/m*3 26.8 C 0 km/h
217 23-05-2009 19:20:57 25.5 C 7.58 g/m*3 25.5 C 0 km/h
218 23-05-2009 19:32:58 24.6 C 7.43 g/m*3 24.6 C 0 km/h
219 23-05-2009 19:44:57 24 C 6.96 g/m*3 24 C 0 km/h
220 23-05-2009 19:56:57 23.8 C 7.53 g/m*3 23.8 C 0 km/h
221 23-05-2009 20:08:57 23.4 C 7.15 g/m*3 23.4 C 0 km/h
222 23-05-2009 20:20:57 23.1 C 7.03 g/m*3 23.1 C 0 km/h
223 23-05-2009 20:32:57 22.8 C 7.11 g/m*3 22.8 C 0 km/h
224 23-05-2009 20:44:56 22.4 C 6.75 g/m*3 22.4 C 0 km/h
225 23-05-2009 20:56:56 22 C 6.99 g/m*3 22 C 0 km/h
Sensor: Nr:Datum:Temp:Abs-Feuchte:Windchill:Wind:
Aussen-T/F 226 23-05-2009 21:08:56 21.5 C 7.54 g/m*3 21.5 C 0 km/h
227 23-05-2009 21:20:56 21 C 7.51 g/m*3 21 C 0 km/h
228 23-05-2009 21:32:56 20.7 C 7.56 g/m*3 20.7 C 0 km/h
229 23-05-2009 21:44:56 20.6 C 7.52 g/m*3 20.6 C 0 km/h
230 23-05-2009 21:56:56 20.3 C 7.56 g/m*3 20.3 C 0 km/h
231 23-05-2009 22:08:55 20.2 C 7.34 g/m*3 20.2 C 0 km/h
232 23-05-2009 22:20:56 20 C 7.43 g/m*3 20 C 0 km/h
233 23-05-2009 22:32:56 20 C 7.43 g/m*3 20 C 0 km/h
234 23-05-2009 22:45:03 19.7 C 7.64 g/m*3 19.7 C 0 km/h
235 23-05-2009 22:57:03 19.6 C 7.6 g/m*3 19.6 C 0 km/h
236 23-05-2009 23:09:03 19.4 C 7.84 g/m*3 19.4 C 0 km/h
237 23-05-2009 23:21:03 19.1 C 8.03 g/m*3 19.1 C 0 km/h
238 23-05-2009 23:33:03 19.1 C 8.2 g/m*3 19.1 C 0 km/h
239 23-05-2009 23:45:04 18.9 C 7.94 g/m*3 18.9 C 0 km/h
240 23-05-2009 23:57:04 18.5 C 7.59 g/m*3 18.5 C 0 km/h
241 24-05-2009 00:09:04 18.3 C 7.66 g/m*3 18.3 C 0 km/h
242 24-05-2009 00:21:04 17.9 C 7.63 g/m*3 17.9 C 0 km/h
243 24-05-2009 00:33:04 17.7 C 7.85 g/m*3 17.7 C 0 km/h
244 24-05-2009 00:45:04 17.7 C 7.85 g/m*3 17.7 C 0 km/h
245 24-05-2009 00:57:04 17.6 C 7.8 g/m*3 17.6 C 0 km/h
246 24-05-2009 01:09:04 17.5 C 7.75 g/m*3 17.5 C 0 km/h
247 24-05-2009 01:21:04 17.2 C 7.91 g/m*3 17.2 C 0 km/h
248 24-05-2009 01:33:04 17 C 7.96 g/m*3 17 C 0 km/h
249 24-05-2009 01:45:04 17 C 8.1 g/m*3 17 C 0 km/h
250 24-05-2009 01:57:04 16.8 C 8.29 g/m*3 16.8 C 0 km/h
Sensor: Nr:Datum:Temp:Abs-Feuchte:Windchill:Wind:
Aussen-T/F 251 24-05-2009 02:09:04 16.7 C 8.38 g/m*3 16.7 C 0 km/h
252 24-05-2009 02:21:04 16.4 C 8.37 g/m*3 16.4 C 0 km/h
253 24-05-2009 02:33:04 16 C 8.31 g/m*3 16 C 0 km/h
254 24-05-2009 02:45:04 15.9 C 8.53 g/m*3 15.9 C 0 km/h
255 24-05-2009 02:57:04 15.7 C 8.43 g/m*3 15.7 C 0 km/h
256 24-05-2009 03:09:04 15.3 C 8.36 g/m*3 15.3 C 0 km/h
257 24-05-2009 03:21:04 15.2 C 8.44 g/m*3 15.2 C 0 km/h
258 24-05-2009 03:33:05 14.9 C 8.41 g/m*3 14.9 C 0 km/h
259 24-05-2009 03:45:05 14.8 C 8.49 g/m*3 14.8 C 0 km/h
260 24-05-2009 03:57:05 14.6 C 8.63 g/m*3 14.6 C 0 km/h
261 24-05-2009 04:09:05 14.2 C 8.67 g/m*3 14.2 C 0 km/h
262 24-05-2009 04:21:05 14.1 C 8.62 g/m*3 14.1 C 0 km/h
263 24-05-2009 04:33:05 13.9 C 8.51 g/m*3 13.9 C 0 km/h
264 24-05-2009 04:45:05 13.9 C 8.51 g/m*3 13.9 C 0 km/h
265 24-05-2009 04:57:05 13.8 C 8.46 g/m*3 13.8 C 0 km/h
266 24-05-2009 05:09:05 13.5 C 8.42 g/m*3 13.5 C 0 km/h
267 24-05-2009 05:21:05 13.5 C 8.66 g/m*3 13.5 C 0 km/h
268 24-05-2009 05:33:05 13.3 C 8.55 g/m*3 13.3 C 0 km/h
269 24-05-2009 05:45:05 13.3 C 8.55 g/m*3 13.3 C 0 km/h
270 24-05-2009 05:57:05 13.3 C 8.55 g/m*3 13.3 C 0 km/h
271 24-05-2009 06:09:05 13.4 C 8.6 g/m*3 13.4 C 0 km/h
272 24-05-2009 06:21:05 13.5 C 8.77 g/m*3 13.5 C 0 km/h
273 24-05-2009 06:33:05 13.5 C 8.89 g/m*3 13.5 C 0 km/h
274 24-05-2009 06:45:05 13.4 C 8.95 g/m*3 13.4 C 0 km/h
275 24-05-2009 06:57:05 13.3 C 8.9 g/m*3 13.3 C 0 km/h
Sensor: Nr:Datum:Temp:Abs-Feuchte:Windchill:Wind:
Aussen-T/F 276 24-05-2009 07:09:05 13.4 C 8.95 g/m*3 13.4 C 0 km/h
277 24-05-2009 07:21:56 13.5 C 9.01 g/m*3 13.5 C 0 km/h
278 24-05-2009 07:33:57 13.8 C 9.17 g/m*3 13.8 C 0 km/h
279 24-05-2009 07:45:56 13.9 C 9.11 g/m*3 13.9 C 0 km/h
280 24-05-2009 07:57:56 14.3 C 9.09 g/m*3 14.3 C 0 km/h
281 24-05-2009 08:09:56 14.7 C 9.19 g/m*3 14.7 C 0 km/h
282 24-05-2009 08:21:56 15.2 C 9.09 g/m*3 15.2 C 0 km/h
283 24-05-2009 08:33:56 15.6 C 9.18 g/m*3 15.6 C 0 km/h
284 24-05-2009 08:45:56 16.1 C 9.32 g/m*3 16.1 C 0 km/h
285 24-05-2009 08:57:56 16.8 C 9.44 g/m*3 16.8 C 0 km/h
286 24-05-2009 09:09:55 17.4 C 9.19 g/m*3 17.4 C 0 km/h
287 24-05-2009 09:21:56 17.9 C 8.86 g/m*3 17.9 C 0 km/h
288 24-05-2009 09:33:55 18.7 C 8.97 g/m*3 18.7 C 0 km/h
289 24-05-2009 09:45:56 19.3 C 8.46 g/m*3 19.3 C 0 km/h
290 24-05-2009 09:57:56 19.9 C 8.76 g/m*3 19.9 C 0 km/h
291 24-05-2009 10:09:55 20.1 C 8.34 g/m*3 20.1 C 0 km/h
292 24-05-2009 10:21:55 21 C 8.24 g/m*3 21 C 0 km/h
293 24-05-2009 10:33:55 21.2 C 8.34 g/m*3 21.2 C 0 km/h
294 24-05-2009 10:45:55 22.2 C 8.44 g/m*3 22.2 C 0 km/h
295 24-05-2009 10:57:55 22.6 C 8.44 g/m*3 22.6 C 0 km/h
296 24-05-2009 11:09:55 23.8 C 9.46 g/m*3 23.8 C 0 km/h
297 24-05-2009 11:21:54 24.2 C 8.14 g/m*3 24.2 C 0 km/h
298 24-05-2009 11:33:55 25.3 C 7.96 g/m*3 25.3 C 0 km/h
299 24-05-2009 11:45:54 25.5 C 7.81 g/m*3 25.5 C 0 km/h
300 24-05-2009 11:57:54 26 C 8.03 g/m*3 26 C 0 km/h
Sensor: Nr:Datum:Temp:Abs-Feuchte:Windchill:Wind:
Aussen-T/F 301 24-05-2009 12:09:54 25.6 C 7.14 g/m*3 25.6 C 0 km/h
302 24-05-2009 12:21:54 26.9 C 7.68 g/m*3 26.9 C 0 km/h
303 24-05-2009 12:33:54 27.6 C 7.18 g/m*3 27.6 C 0 km/h
304 24-05-2009 12:45:53 28.6 C 7.59 g/m*3 28.6 C 0 km/h
305 24-05-2009 12:57:53 29.7 C 7.46 g/m*3 29.7 C 0 km/h
306 24-05-2009 13:09:53 30.1 C 7.01 g/m*3 30.1 C 0 km/h
307 24-05-2009 13:21:54 30.6 C 6.89 g/m*3 30.6 C 0 km/h
308 24-05-2009 13:33:53 30.3 C 6.78 g/m*3 30.3 C 0 km/h
309 24-05-2009 13:45:53 29.2 C 6.1 g/m*3 29.2 C 0 km/h
310 24-05-2009 13:57:53 29.1 C 6.64 g/m*3 29.1 C 0 km/h
311 24-05-2009 14:09:53 29.1 C 6.64 g/m*3 29.1 C 0 km/h
312 24-05-2009 14:21:53 28.5 C 6.99 g/m*3 28.5 C 0 km/h
313 24-05-2009 14:33:52 28.8 C 7.1 g/m*3 28.8 C 0 km/h
314 24-05-2009 14:45:53 29 C 6.89 g/m*3 29 C 0 km/h
315 24-05-2009 14:57:54 30.6 C 6.89 g/m*3 30.6 C 0 km/h
316 24-05-2009 15:09:52 30.3 C 6.78 g/m*3 30.3 C 0 km/h
317 24-05-2009 15:21:52 31.2 C 6.47 g/m*3 31.2 C 0 km/h
318 24-05-2009 15:33:52 31.4 C 6.54 g/m*3 31.4 C 0 km/h
319 24-05-2009 15:45:52 31.9 C 6.72 g/m*3 31.9 C 0 km/h
320 24-05-2009 15:57:52 31.9 C 6.72 g/m*3 31.9 C 0 km/h
321 24-05-2009 16:09:52 32.1 C 6.79 g/m*3 32.1 C 0 km/h
322 24-05-2009 16:21:52 31.9 C 6.72 g/m*3 31.9 C 0 km/h
323 24-05-2009 16:33:52 31.7 C 6.64 g/m*3 31.7 C 0 km/h
324 24-05-2009 16:45:51 31.5 C 6.9 g/m*3 31.5 C 0 km/h
325 24-05-2009 16:57:51 31.5 C 6.9 g/m*3 31.5 C 0 km/h
Sensor: Nr:Datum:Temp:Abs-Feuchte:Windchill:Wind:
Aussen-T/F 326 24-05-2009 17:09:52 30.7 C 7.24 g/m*3 30.7 C 0 km/h
327 24-05-2009 17:21:51 31 C 7.04 g/m*3 31 C 0 km/h
328 24-05-2009 17:33:51 31.3 C 6.83 g/m*3 31.3 C 0 km/h
329 24-05-2009 17:45:51 31.9 C 6.72 g/m*3 31.9 C 0 km/h
330 24-05-2009 17:57:51 32 C 6.75 g/m*3 32 C 0 km/h
331 24-05-2009 18:09:51 31.3 C 6.83 g/m*3 31.3 C 0 km/h
332 24-05-2009 18:21:51 31.5 C 6.9 g/m*3 31.5 C 0 km/h
333 24-05-2009 18:33:50 31.7 C 6.98 g/m*3 31.7 C 0 km/h
334 24-05-2009 18:45:50 31.7 C 6.64 g/m*3 31.7 C 0 km/h
335 24-05-2009 18:57:50 31.2 C 6.79 g/m*3 31.2 C 0 km/h
336 24-05-2009 19:09:50 31.1 C 7.4 g/m*3 31.1 C 0 km/h
337 24-05-2009 19:21:50 30.9 C 7 g/m*3 30.9 C 0 km/h
338 24-05-2009 19:33:50 30.9 C 7.64 g/m*3 30.9 C 0 km/h
339 24-05-2009 19:45:50 30.2 C 7.66 g/m*3 30.2 C 0 km/h
340 24-05-2009 19:57:50 30 C 7.88 g/m*3 30 C 0 km/h
341 24-05-2009 20:09:50 28.9 C 8 g/m*3 28.9 C 0 km/h
342 24-05-2009 20:21:49 28.7 C 8.48 g/m*3 28.7 C 0 km/h
343 24-05-2009 20:33:49 28.2 C 8.8 g/m*3 28.2 C 0 km/h
344 24-05-2009 20:45:49 27.2 C 9.37 g/m*3 27.2 C 0 km/h
345 24-05-2009 20:57:49 26 C 9.25 g/m*3 26 C 0 km/h
346 24-05-2009 21:09:49 25.2 C 9.31 g/m*3 25.2 C 0 km/h
347 24-05-2009 21:21:49 24.3 C 9.29 g/m*3 24.3 C 0 km/h
348 24-05-2009 21:33:48 24 C 9.14 g/m*3 24 C 0 km/h
349 24-05-2009 21:45:49 23.9 C 9.3 g/m*3 23.9 C 0 km/h
350 24-05-2009 21:57:49 23.6 C 9.36 g/m*3 23.6 C 0 km/h
Sensor: Nr:Datum:Temp:Abs-Feuchte:Windchill:Wind:
Aussen-T/F 351 24-05-2009 22:09:48 23.2 C 9.56 g/m*3 23.2 C 0 km/h
352 24-05-2009 22:22:49 22.9 C 9.61 g/m*3 22.9 C 0 km/h
353 24-05-2009 22:34:49 22.8 C 9.75 g/m*3 22.8 C 0 km/h
354 24-05-2009 22:46:49 22.5 C 9.39 g/m*3 22.5 C 0 km/h
355 24-05-2009 22:58:49 22.3 C 9.68 g/m*3 22.3 C 0 km/h
356 24-05-2009 23:10:49 22 C 9.7 g/m*3 22 C 0 km/h
357 24-05-2009 23:22:49 21.7 C 9.92 g/m*3 21.7 C 0 km/h
358 24-05-2009 23:34:49 21.5 C 9.81 g/m*3 21.5 C 0 km/h
359 24-05-2009 23:46:49 21.2 C 9.82 g/m*3 21.2 C 0 km/h
360 24-05-2009 23:58:49 21 C 9.89 g/m*3 21 C 0 km/h
361 25-05-2009 00:10:49 20.7 C 9.9 g/m*3 20.7 C 0 km/h
362 25-05-2009 00:22:49 20.5 C 10.14 g/m*3 20.5 C 0 km/h
363 25-05-2009 00:34:49 20.3 C 10.02 g/m*3 20.3 C 0 km/h
364 25-05-2009 00:46:49 20 C 10.02 g/m*3 20 C 0 km/h
365 25-05-2009 00:58:49 19.6 C 10.3 g/m*3 19.6 C 0 km/h
366 25-05-2009 01:10:49 19.4 C 10.18 g/m*3 19.4 C 0 km/h
367 25-05-2009 01:22:49 19.3 C 10.12 g/m*3 19.3 C 0 km/h
368 25-05-2009 01:34:49 19.2 C 10.06 g/m*3 19.2 C 0 km/h
369 25-05-2009 01:46:49 18.9 C 10.37 g/m*3 18.9 C 0 km/h
370 25-05-2009 01:58:49 18.7 C 10.41 g/m*3 18.7 C 0 km/h
371 25-05-2009 02:10:49 18.6 C 10.35 g/m*3 18.6 C 0 km/h
372 25-05-2009 02:22:50 18.4 C 10.38 g/m*3 18.4 C 0 km/h
373 25-05-2009 02:34:50 18.2 C 10.26 g/m*3 18.2 C 0 km/h
374 25-05-2009 02:46:50 18 C 10.14 g/m*3 18 C 0 km/h
375 25-05-2009 02:58:50 17.9 C 10.23 g/m*3 17.9 C 0 km/h
Sensor: Nr:Datum:Temp:Abs-Feuchte:Windchill:Wind:
Aussen-T/F 376 25-05-2009 03:10:50 17.7 C 10.26 g/m*3 17.7 C 0 km/h
377 25-05-2009 03:22:50 17.5 C 10.29 g/m*3 17.5 C 0 km/h
378 25-05-2009 03:34:50 17.4 C 10.23 g/m*3 17.4 C 0 km/h
379 25-05-2009 03:46:50 17.3 C 10.31 g/m*3 17.3 C 0 km/h
380 25-05-2009 03:58:50 17.1 C 10.19 g/m*3 17.1 C 0 km/h
381 25-05-2009 04:10:50 17 C 10.27 g/m*3 17 C 0 km/h
382 25-05-2009 04:22:50 16.9 C 10.36 g/m*3 16.9 C 0 km/h
383 25-05-2009 04:34:50 16.7 C 10.37 g/m*3 16.7 C 0 km/h
384 25-05-2009 04:46:50 16.5 C 10.25 g/m*3 16.5 C 0 km/h
385 25-05-2009 04:58:50 16.4 C 10.19 g/m*3 16.4 C 0 km/h
386 25-05-2009 05:10:50 16.2 C 10.2 g/m*3 16.2 C 0 km/h
387 25-05-2009 05:22:50 16.1 C 10.14 g/m*3 16.1 C 0 km/h
388 25-05-2009 05:34:50 15.9 C 10.16 g/m*3 15.9 C 0 km/h
389 25-05-2009 05:46:50 15.9 C 10.29 g/m*3 15.9 C 0 km/h
390 25-05-2009 05:58:50 15.8 C 10.23 g/m*3 15.8 C 0 km/h
391 25-05-2009 06:10:51 15.7 C 10.3 g/m*3 15.7 C 0 km/h
392 25-05-2009 06:22:51 15.6 C 10.24 g/m*3 15.6 C 0 km/h
393 25-05-2009 06:34:51 15.8 C 10.36 g/m*3 15.8 C 0 km/h
394 25-05-2009 06:46:51 16 C 10.49 g/m*3 16 C 0 km/h
395 25-05-2009 06:58:51 16 C 10.49 g/m*3 16 C 0 km/h
396 25-05-2009 07:10:48 16 C 10.49 g/m*3 16 C 0 km/h
397 25-05-2009 07:22:48 16.2 C 10.62 g/m*3 16.2 C 0 km/h
398 25-05-2009 07:34:48 16.2 C 10.62 g/m*3 16.2 C 0 km/h
399 25-05-2009 07:46:48 16.4 C 10.61 g/m*3 16.4 C 0 km/h
400 25-05-2009 07:58:48 16.7 C 10.8 g/m*3 16.7 C 0 km/h
Sensor: Nr:Datum:Temp:Abs-Feuchte:Windchill:Wind:
Aussen-T/F 401 25-05-2009 08:10:47 17.2 C 10.98 g/m*3 17.2 C 0 km/h
402 25-05-2009 08:22:48 17.5 C 11.03 g/m*3 17.5 C 0 km/h
403 25-05-2009 08:34:48 17.9 C 10.99 g/m*3 17.9 C 0 km/h
404 25-05-2009 08:46:47 18.3 C 10.94 g/m*3 18.3 C 0 km/h
405 25-05-2009 08:58:47 18.8 C 11.27 g/m*3 18.8 C 0 km/h
406 25-05-2009 09:10:48 19.5 C 11.08 g/m*3 19.5 C 0 km/h
407 25-05-2009 09:22:47 20.3 C 10.73 g/m*3 20.3 C 0 km/h
408 25-05-2009 09:34:47 21 C 10.62 g/m*3 21 C 0 km/h
409 25-05-2009 09:46:46 21.5 C 10.75 g/m*3 21.5 C 0 km/h
410 25-05-2009 09:58:46 22.2 C 10.6 g/m*3 22.2 C 0 km/h
411 25-05-2009 10:10:47 22.9 C 10.42 g/m*3 22.9 C 0 km/h
412 25-05-2009 10:22:47 23.7 C 10.69 g/m*3 23.7 C 0 km/h
413 25-05-2009 10:34:46 24.4 C 10.46 g/m*3 24.4 C 0 km/h
414 25-05-2009 10:46:47 24.9 C 10.53 g/m*3 24.9 C 0 km/h
415 25-05-2009 10:58:47 25.8 C 10.11 g/m*3 25.8 C 0 km/h
416 25-05-2009 11:10:46 26.4 C 10.7 g/m*3 26.4 C 0 km/h
417 25-05-2009 11:22:46 27.2 C 9.89 g/m*3 27.2 C 0 km/h
418 25-05-2009 11:34:01 27.3 C 9.94 g/m*3 27.3 C 0 km/h
419 25-05-2009 11:46:01 28 C 9.79 g/m*3 28 C 0 km/h
420 25-05-2009 11:58:02 28.7 C 9.61 g/m*3 28.7 C 0 km/h
421 25-05-2009 12:10:01 29.7 C 9.85 g/m*3 29.7 C 0 km/h
422 25-05-2009 12:22:01 29.8 C 9.6 g/m*3 29.8 C 0 km/h
423 25-05-2009 12:34:01 30.6 C 9.08 g/m*3 30.6 C 0 km/h
424 25-05-2009 12:46:01 31.3 C 8.78 g/m*3 31.3 C 0 km/h
425 25-05-2009 12:58:01 31.5 C 8.55 g/m*3 31.5 C 0 km/h
Sensor: Nr:Datum:Temp:Abs-Feuchte:Windchill:Wind:
Aussen-T/F 426 25-05-2009 13:10:01 31.8 C 8.02 g/m*3 31.8 C 0 km/h
427 25-05-2009 13:22:00 31.8 C 7.35 g/m*3 31.8 C 0 km/h
428 25-05-2009 13:34:01 32.2 C 7.85 g/m*3 32.2 C 0 km/h
429 25-05-2009 13:46:00 32.4 C 6.9 g/m*3 32.4 C 0 km/h
430 25-05-2009 13:58:00 32.3 C 7.2 g/m*3 32.3 C 0 km/h
431 25-05-2009 14:10:00 32 C 7.09 g/m*3 32 C 0 km/h
432 25-05-2009 14:22:59 32 C 7.76 g/m*3 32 C 0 km/h
433 25-05-2009 14:34:00 32.3 C 7.2 g/m*3 32.3 C 0 km/h
434 25-05-2009 14:46:59 32.6 C 6.97 g/m*3 32.6 C 0 km/h
435 25-05-2009 14:58:59 32.6 C 7.67 g/m*3 32.6 C 0 km/h
436 25-05-2009 15:10:59 33.2 C 7.55 g/m*3 33.2 C 0 km/h
437 25-05-2009 15:22:00 33.3 C 7.23 g/m*3 33.3 C 0 km/h
438 25-05-2009 15:34:59 33.3 C 7.23 g/m*3 33.3 C 0 km/h
439 25-05-2009 15:46:59 33.4 C 7.27 g/m*3 33.4 C 0 km/h
440 25-05-2009 15:58:59 33.6 C 7.35 g/m*3 33.6 C 0 km/h
441 25-05-2009 16:10:59 33.1 C 7.52 g/m*3 33.1 C 0 km/h
442 25-05-2009 16:22:59 33.1 C 8.59 g/m*3 33.1 C 0 km/h
443 25-05-2009 16:34:59 32.4 C 10 g/m*3 32.4 C 0 km/h
444 25-05-2009 16:46:58 31.9 C 10.75 g/m*3 31.9 C 0 km/h
445 25-05-2009 16:58:58 31.3 C 11.38 g/m*3 31.3 C 0 km/h
446 25-05-2009 17:10:59 30.6 C 11.9 g/m*3 30.6 C 0 km/h
447 25-05-2009 17:22:58 29.8 C 12.6 g/m*3 29.8 C 0 km/h
448 25-05-2009 17:34:58 29.1 C 12.71 g/m*3 29.1 C 0 km/h
449 25-05-2009 17:46:58 28.2 C 12.92 g/m*3 28.2 C 0 km/h
450 25-05-2009 17:58:58 28 C 12.51 g/m*3 28 C 0 km/h
Sensor: Nr:Datum:Temp:Abs-Feuchte:Windchill:Wind:
Aussen-T/F 451 25-05-2009 18:10:57 27.6 C 11.97 g/m*3 27.6 C 0 km/h
452 25-05-2009 18:22:58 26.8 C 7.64 g/m*3 26.8 C 0 km/h
453 25-05-2009 18:34:57 26.4 C 7.47 g/m*3 26.4 C 0 km/h
454 25-05-2009 18:46:57 25.9 C 7.26 g/m*3 25.9 C 0 km/h
455 25-05-2009 18:58:57 25.8 C 8.19 g/m*3 25.8 C 0 km/h
456 25-05-2009 19:10:57 25.2 C 7.92 g/m*3 25.2 C 0 km/h
457 25-05-2009 19:22:57 25 C 8.06 g/m*3 25 C 0 km/h
458 25-05-2009 19:34:57 25.3 C 7.96 g/m*3 25.3 C 0 km/h
459 25-05-2009 19:46:57 25.5 C 8.76 g/m*3 25.5 C 0 km/h
460 25-05-2009 19:58:57 25.4 C 8.48 g/m*3 25.4 C 0 km/h
461 25-05-2009 20:10:57 25.5 C 9.23 g/m*3 25.5 C 0 km/h
462 25-05-2009 20:22:56 25.8 C 9.15 g/m*3 25.8 C 0 km/h
463 25-05-2009 20:34:56 26.2 C 8.86 g/m*3 26.2 C 0 km/h
464 25-05-2009 20:46:56 26.1 C 10.04 g/m*3 26.1 C 0 km/h
465 25-05-2009 20:58:56 25.5 C 9.94 g/m*3 25.5 C 0 km/h
466 25-05-2009 21:10:56 24.9 C 10.3 g/m*3 24.9 C 0 km/h
467 25-05-2009 21:22:56 24.1 C 10.28 g/m*3 24.1 C 0 km/h
468 25-05-2009 21:34:56 23.4 C 10.09 g/m*3 23.4 C 0 km/h
469 25-05-2009 21:46:55 22.8 C 9.96 g/m*3 22.8 C 0 km/h
470 25-05-2009 21:58:55 22.4 C 9.93 g/m*3 22.4 C 0 km/h
471 25-05-2009 22:10:55 22.1 C 9.96 g/m*3 22.1 C 0 km/h
472 25-05-2009 22:23:57 21.9 C 9.84 g/m*3 21.9 C 0 km/h
473 25-05-2009 22:35:57 21.7 C 9.92 g/m*3 21.7 C 0 km/h
474 25-05-2009 22:47:57 21.7 C 10.3 g/m*3 21.7 C 0 km/h
475 25-05-2009 22:59:57 21.5 C 10.37 g/m*3 21.5 C 0 km/h
Sensor: Nr:Datum:Temp:Abs-Feuchte:Windchill:Wind:
Aussen-T/F 476 25-05-2009 23:11:57 21.2 C 10.38 g/m*3 21.2 C 0 km/h
477 25-05-2009 23:23:57 21 C 10.26 g/m*3 21 C 0 km/h
478 25-05-2009 23:35:57 20.8 C 10.5 g/m*3 20.8 C 0 km/h
479 25-05-2009 23:47:57 20.5 C 10.5 g/m*3 20.5 C 0 km/h
480 25-05-2009 23:59:57 20.4 C 10.61 g/m*3 20.4 C 0 km/h
481 26-05-2009 00:11:57 20.2 C 10.84 g/m*3 20.2 C 0 km/h
482 26-05-2009 00:23:57 20 C 10.89 g/m*3 20 C 0 km/h
483 26-05-2009 00:35:57 19.9 C 11 g/m*3 19.9 C 0 km/h
484 26-05-2009 00:47:57 19.7 C 11.04 g/m*3 19.7 C 0 km/h
485 26-05-2009 00:59:57 19.5 C 11.24 g/m*3 19.5 C 0 km/h
486 26-05-2009 01:11:57 19.3 C 11.11 g/m*3 19.3 C 0 km/h
487 26-05-2009 01:23:58 19.2 C 11.05 g/m*3 19.2 C 0 km/h
488 26-05-2009 01:35:58 18.9 C 11.18 g/m*3 18.9 C 0 km/h
489 26-05-2009 01:47:58 18.9 C 11.5 g/m*3 18.9 C 0 km/h
490 26-05-2009 01:59:58 19.1 C 11.47 g/m*3 19.1 C 0 km/h
491 26-05-2009 02:11:58 18.8 C 11.43 g/m*3 18.8 C 0 km/h
492 26-05-2009 02:23:58 18.6 C 11.3 g/m*3 18.6 C 0 km/h
493 26-05-2009 02:35:58 18.5 C 11.39 g/m*3 18.5 C 0 km/h
494 26-05-2009 02:47:58 18.3 C 11.41 g/m*3 18.3 C 0 km/h
495 26-05-2009 02:59:58 18.3 C 11.41 g/m*3 18.3 C 0 km/h
496 26-05-2009 03:11:58 18.4 C 11.48 g/m*3 18.4 C 0 km/h
497 26-05-2009 03:23:58 18.4 C 11.48 g/m*3 18.4 C 0 km/h
498 26-05-2009 03:35:58 18.5 C 11.55 g/m*3 18.5 C 0 km/h
499 26-05-2009 03:47:58 18.3 C 11.41 g/m*3 18.3 C 0 km/h
500 26-05-2009 03:59:58 18 C 11.37 g/m*3 18 C 0 km/h
Sensor: Nr:Datum:Temp:Abs-Feuchte:Windchill:Wind:
Aussen-T/F 501 26-05-2009 04:11:58 17.9 C 11.45 g/m*3 17.9 C 0 km/h
502 26-05-2009 04:23:58 17.7 C 11.47 g/m*3 17.7 C 0 km/h
503 26-05-2009 04:35:58 17.5 C 11.48 g/m*3 17.5 C 0 km/h
504 26-05-2009 04:47:58 17.4 C 11.56 g/m*3 17.4 C 0 km/h
505 26-05-2009 04:59:58 17.3 C 11.34 g/m*3 17.3 C 0 km/h
506 26-05-2009 05:11:58 17.2 C 11.42 g/m*3 17.2 C 0 km/h
507 26-05-2009 05:23:58 17.2 C 11.42 g/m*3 17.2 C 0 km/h
508 26-05-2009 05:35:59 17.4 C 11.86 g/m*3 17.4 C 0 km/h
509 26-05-2009 05:47:59 17.6 C 11.85 g/m*3 17.6 C 0 km/h
510 26-05-2009 05:59:59 17.6 C 11.55 g/m*3 17.6 C 0 km/h
511 26-05-2009 06:11:59 17.6 C 11.7 g/m*3 17.6 C 0 km/h
512 26-05-2009 06:23:59 17.7 C 11.77 g/m*3 17.7 C 0 km/h
513 26-05-2009 06:35:56 18 C 11.83 g/m*3 18 C 0 km/h
514 26-05-2009 06:47:56 18.2 C 11.81 g/m*3 18.2 C 0 km/h
515 26-05-2009 06:59:56 18.4 C 12.11 g/m*3 18.4 C 0 km/h
516 26-05-2009 07:11:56 18.5 C 12.02 g/m*3 18.5 C 0 km/h
517 26-05-2009 07:23:56 18.7 C 12.17 g/m*3 18.7 C 0 km/h
518 26-05-2009 07:35:56 18.7 C 12.01 g/m*3 18.7 C 0 km/h
519 26-05-2009 07:47:55 19.1 C 11.97 g/m*3 19.1 C 0 km/h
520 26-05-2009 07:59:55 19.3 C 11.94 g/m*3 19.3 C 0 km/h
521 26-05-2009 08:11:56 19.6 C 12.15 g/m*3 19.6 C 0 km/h
522 26-05-2009 08:23:55 20.1 C 12.17 g/m*3 20.1 C 0 km/h
523 26-05-2009 08:35:55 20.9 C 10.93 g/m*3 20.9 C 0 km/h
524 26-05-2009 08:47:55 21.4 C 9.75 g/m*3 21.4 C 0 km/h
525 26-05-2009 08:59:55 21.5 C 9.43 g/m*3 21.5 C 0 km/h
Sensor: Nr:Datum:Temp:Abs-Feuchte:Windchill:Wind:
Aussen-T/F 526 26-05-2009 09:11:55 21.4 C 9.94 g/m*3 21.4 C 0 km/h
527 26-05-2009 09:23:54 20.4 C 10.61 g/m*3 20.4 C 0 km/h
528 26-05-2009 09:35:54 21.2 C 10.75 g/m*3 21.2 C 0 km/h
529 26-05-2009 09:47:55 21.8 C 10.55 g/m*3 21.8 C 0 km/h
530 26-05-2009 09:59:55 22.5 C 10.39 g/m*3 22.5 C 0 km/h
531 26-05-2009 10:11:54 23 C 10.07 g/m*3 23 C 0 km/h
532 26-05-2009 10:23:54 22.8 C 9.75 g/m*3 22.8 C 0 km/h
533 26-05-2009 10:35:54 22.9 C 10.01 g/m*3 22.9 C 0 km/h
534 26-05-2009 10:47:54 23.1 C 9.72 g/m*3 23.1 C 0 km/h
535 26-05-2009 10:59:55 23.7 C 9.84 g/m*3 23.7 C 0 km/h
536 26-05-2009 11:11:53 23.8 C 9.9 g/m*3 23.8 C 0 km/h
537 26-05-2009 11:23:53 23.6 C 10 g/m*3 23.6 C 0 km/h
538 26-05-2009 11:35:54 23.3 C 10.04 g/m*3 23.3 C 0 km/h
539 26-05-2009 11:47:53 23.8 C 9.9 g/m*3 23.8 C 0 km/h
540 26-05-2009 11:59:53 24.4 C 9.79 g/m*3 24.4 C 0 km/h
541 26-05-2009 12:11:53 24.4 C 8.9 g/m*3 24.4 C 0 km/h
542 26-05-2009 12:23:53 23.1 C 8.68 g/m*3 23.1 C 0 km/h
543 26-05-2009 12:35:53 24.3 C 9.29 g/m*3 24.3 C 0 km/h
544 26-05-2009 12:47:52 25.4 C 8.71 g/m*3 25.4 C 0 km/h
545 26-05-2009 12:59:52 24.3 C 8.41 g/m*3 24.3 C 0 km/h
546 26-05-2009 13:11:53 25.6 C 8.33 g/m*3 25.6 C 0 km/h
547 26-05-2009 13:23:53 26.5 C 8.26 g/m*3 26.5 C 0 km/h
548 26-05-2009 13:35:52 26.5 C 7.76 g/m*3 26.5 C 0 km/h
549 26-05-2009 13:47:52 25.7 C 7.66 g/m*3 25.7 C 0 km/h
550 26-05-2009 13:59:52 26.1 C 7.83 g/m*3 26.1 C 0 km/h
Sensor: Nr:Datum:Temp:Abs-Feuchte:Windchill:Wind:
Aussen-T/F 551 26-05-2009 14:11:52 25.6 C 7.86 g/m*3 25.6 C 0 km/h
552 26-05-2009 14:23:52 24.7 C 7.47 g/m*3 24.7 C 0 km/h
553 26-05-2009 14:35:51 24 C 7.61 g/m*3 24 C 0 km/h
554 26-05-2009 14:47:52 23.6 C 7.87 g/m*3 23.6 C 0 km/h
555 26-05-2009 14:59:53 24.6 C 7.88 g/m*3 24.6 C 0 km/h
556 26-05-2009 15:11:51 24.1 C 7.88 g/m*3 24.1 C 0 km/h
557 26-05-2009 15:23:51 25 C 7.6 g/m*3 25 C 0 km/h
558 26-05-2009 15:35:51 23.8 C 7.31 g/m*3 23.8 C 0 km/h
559 26-05-2009 15:47:51 24.3 C 7.08 g/m*3 24.3 C 0 km/h
560 26-05-2009 15:59:51 24.5 C 7.39 g/m*3 24.5 C 0 km/h
561 26-05-2009 16:05:51 24.7 C 7.47 g/m*3 24.7 C 0 km/h
562 26-05-2009 16:21:50 25 C 7.37 g/m*3 25 C 0 km/h
563 26-05-2009 16:33:51 24.9 C 7.55 g/m*3 24.9 C 0 km/h
564 26-05-2009 16:45:50 24.3 C 7.08 g/m*3 24.3 C 0 km/h
565 26-05-2009 16:57:50 23.9 C 7.14 g/m*3 23.9 C 0 km/h
566 26-05-2009 17:09:50 23.3 C 7.32 g/m*3 23.3 C 0 km/h
567 26-05-2009 17:21:50 24 C 7.61 g/m*3 24 C 0 km/h
568 26-05-2009 17:33:50 24.3 C 7.52 g/m*3 24.3 C 0 km/h
569 26-05-2009 17:45:49 24.4 C 7.57 g/m*3 24.4 C 0 km/h
570 26-05-2009 17:57:49 23.7 C 7.7 g/m*3 23.7 C 0 km/h
571 26-05-2009 18:09:50 22.9 C 7.77 g/m*3 22.9 C 0 km/h
572 26-05-2009 18:21:50 21 C 7.88 g/m*3 21 C 0 km/h
573 26-05-2009 18:33:49 18.4 C 9.75 g/m*3 18.4 C 0 km/h
574 26-05-2009 18:45:49 17.5 C 11.03 g/m*3 17.5 C 0 km/h
575 26-05-2009 18:57:49 17 C 11 g/m*3 17 C 0 km/h
Sensor: Nr:Datum:Temp:Abs-Feuchte:Windchill:Wind:
Aussen-T/F 576 26-05-2009 19:09:49 17.1 C 11.06 g/m*3 17.1 C 0 km/h
577 26-05-2009 19:21:49 17.1 C 10.77 g/m*3 17.1 C 0 km/h
578 26-05-2009 19:33:49 15.7 C 9.5 g/m*3 15.7 C 0 km/h
579 26-05-2009 19:45:49 16.2 C 9.65 g/m*3 16.2 C 0 km/h
580 26-05-2009 19:57:49 16.5 C 9.55 g/m*3 16.5 C 0 km/h
581 26-05-2009 20:09:49 16.6 C 8.9 g/m*3 16.6 C 0 km/h
582 26-05-2009 20:21:48 16.3 C 8.88 g/m*3 16.3 C 0 km/h
583 26-05-2009 20:33:49 15.5 C 9.65 g/m*3 15.5 C 0 km/h
584 26-05-2009 20:45:48 15.1 C 9.93 g/m*3 15.1 C 0 km/h
585 26-05-2009 20:57:48 14.6 C 9.64 g/m*3 14.6 C 0 km/h
586 26-05-2009 21:09:48 14.5 C 9.33 g/m*3 14.5 C 0 km/h
587 26-05-2009 21:21:47 14.8 C 9.37 g/m*3 14.8 C 0 km/h
588 26-05-2009 21:33:47 15.1 C 8.64 g/m*3 15.1 C 0 km/h
589 26-05-2009 21:45:48 15.2 C 8.57 g/m*3 15.2 C 0 km/h
590 26-05-2009 21:57:48 15.1 C 8.39 g/m*3 15.1 C 0 km/h
591 26-05-2009 22:09:47 15.1 C 8.39 g/m*3 15.1 C 0 km/h
592 26-05-2009 22:21:47 14 C 7.6 g/m*3 14 C 0 km/h
593 26-05-2009 22:34:01 13.7 C 7.22 g/m*3 13.7 C 0 km/h
594 26-05-2009 22:46:01 13.2 C 6.54 g/m*3 13.2 C 0 km/h
595 26-05-2009 22:58:01 12.8 C 6.61 g/m*3 12.8 C 0 km/h
596 26-05-2009 23:10:01 12.5 C 6.49 g/m*3 12.5 C 0 km/h
597 26-05-2009 23:22:01 12.3 C 6.41 g/m*3 12.3 C 0 km/h
598 26-05-2009 23:34:01 12.2 C 6.47 g/m*3 12.2 C 0 km/h
599 26-05-2009 23:46:01 12.2 C 6.58 g/m*3 12.2 C 0 km/h
600 26-05-2009 23:58:01 12.1 C 6.65 g/m*3 12.1 C 0 km/h
Sensor: Nr:Datum:Temp:Abs-Feuchte:Windchill:Wind:
Aussen-T/F 601 27-05-2009 00:10:02 12.4 C 6.88 g/m*3 12.4 C 0 km/h
602 27-05-2009 00:22:02 12.4 C 6.88 g/m*3 12.4 C 0 km/h
603 27-05-2009 00:34:02 12.2 C 6.91 g/m*3 12.2 C 0 km/h
604 27-05-2009 00:46:02 12 C 6.93 g/m*3 12 C 0 km/h
605 27-05-2009 00:58:02 11.6 C 7.07 g/m*3 11.6 C 0 km/h
606 27-05-2009 01:10:02 11.5 C 7.13 g/m*3 11.5 C 0 km/h
607 27-05-2009 01:22:02 11.4 C 7.08 g/m*3 11.4 C 0 km/h
608 27-05-2009 01:34:02 11.2 C 6.99 g/m*3 11.2 C 0 km/h
609 27-05-2009 01:46:02 11.1 C 6.95 g/m*3 11.1 C 0 km/h
610 27-05-2009 01:58:02 10.9 C 6.96 g/m*3 10.9 C 0 km/h
611 27-05-2009 02:10:02 10.7 C 6.97 g/m*3 10.7 C 0 km/h
612 27-05-2009 02:22:02 10.4 C 6.94 g/m*3 10.4 C 0 km/h
613 27-05-2009 02:34:02 10.2 C 6.85 g/m*3 10.2 C 0 km/h
614 27-05-2009 02:46:02 10.2 C 6.76 g/m*3 10.2 C 0 km/h
615 27-05-2009 02:58:02 10.3 C 6.7 g/m*3 10.3 C 0 km/h
616 27-05-2009 03:10:02 10.1 C 6.71 g/m*3 10.1 C 0 km/h
617 27-05-2009 03:22:02 9.8 C 6.77 g/m*3 9.8 C 0 km/h
618 27-05-2009 03:34:02 9.6 C 6.78 g/m*3 9.6 C 0 km/h
619 27-05-2009 03:46:02 9.6 C 6.78 g/m*3 9.6 C 0 km/h
620 27-05-2009 03:58:02 9.5 C 6.74 g/m*3 9.5 C 0 km/h
621 27-05-2009 04:10:02 9.4 C 6.69 g/m*3 9.4 C 0 km/h
622 27-05-2009 04:22:03 9.3 C 6.65 g/m*3 9.3 C 0 km/h
623 27-05-2009 04:34:03 9.2 C 6.7 g/m*3 9.2 C 0 km/h
624 27-05-2009 04:46:03 9.2 C 6.7 g/m*3 9.2 C 0 km/h
625 27-05-2009 04:58:03 9.2 C 6.7 g/m*3 9.2 C 0 km/h
Sensor: Nr:Datum:Temp:Abs-Feuchte:Windchill:Wind:
Aussen-T/F 626 27-05-2009 05:10:03 9.1 C 6.74 g/m*3 9.1 C 0 km/h
627 27-05-2009 05:22:03 9.1 C 6.74 g/m*3 9.1 C 0 km/h
628 27-05-2009 05:34:03 9.3 C 6.83 g/m*3 9.3 C 0 km/h
629 27-05-2009 05:46:03 9.2 C 6.79 g/m*3 9.2 C 0 km/h
630 27-05-2009 05:58:03 9.2 C 6.7 g/m*3 9.2 C 0 km/h
631 27-05-2009 06:10:03 9.3 C 6.74 g/m*3 9.3 C 0 km/h
632 27-05-2009 06:22:03 9.3 C 6.83 g/m*3 9.3 C 0 km/h
633 27-05-2009 06:34:03 9.3 C 6.74 g/m*3 9.3 C 0 km/h
634 27-05-2009 06:46:03 9.5 C 6.83 g/m*3 9.5 C 0 km/h
635 27-05-2009 06:58:03 9.7 C 6.82 g/m*3 9.7 C 0 km/h
636 27-05-2009 07:10:02 9.8 C 6.87 g/m*3 9.8 C 0 km/h
637 27-05-2009 07:22:02 9.9 C 6.82 g/m*3 9.9 C 0 km/h
638 27-05-2009 07:34:01 10 C 6.77 g/m*3 10 C 0 km/h
639 27-05-2009 07:46:02 10.2 C 6.76 g/m*3 10.2 C 0 km/h
640 27-05-2009 07:58:02 10.5 C 6.89 g/m*3 10.5 C 0 km/h
641 27-05-2009 08:10:01 10.7 C 6.97 g/m*3 10.7 C 0 km/h
642 27-05-2009 08:22:02 11 C 6.91 g/m*3 11 C 0 km/h
643 27-05-2009 08:34:01 11.3 C 6.94 g/m*3 11.3 C 0 km/h
644 27-05-2009 08:46:01 11.7 C 7.01 g/m*3 11.7 C 0 km/h
645 27-05-2009 08:58:01 12.2 C 6.91 g/m*3 12.2 C 0 km/h
646 27-05-2009 09:10:01 12.4 C 6.88 g/m*3 12.4 C 0 km/h
647 27-05-2009 09:22:01 12.9 C 6.88 g/m*3 12.9 C 0 km/h
648 27-05-2009 09:34:02 13.2 C 6.77 g/m*3 13.2 C 0 km/h
649 27-05-2009 09:46:01 13.5 C 6.78 g/m*3 13.5 C 0 km/h
650 27-05-2009 09:58:01 13.7 C 6.63 g/m*3 13.7 C 0 km/h
Sensor: Nr:Datum:Temp:Abs-Feuchte:Windchill:Wind:
Aussen-T/F 651 27-05-2009 10:10:02 14.3 C 6.51 g/m*3 14.3 C 0 km/h
652 27-05-2009 10:22:01 14.7 C 6.3 g/m*3 14.7 C 0 km/h
653 27-05-2009 10:34:01 14.9 C 6.37 g/m*3 14.9 C 0 km/h
654 27-05-2009 10:46:01 15.3 C 6.27 g/m*3 15.3 C 0 km/h
655 27-05-2009 10:58:01 15.7 C 6.02 g/m*3 15.7 C 0 km/h
656 27-05-2009 11:10:01 15.8 C 6.06 g/m*3 15.8 C 0 km/h
657 27-05-2009 11:22:02 16.1 C 5.76 g/m*3 16.1 C 0 km/h
658 27-05-2009 11:34:01 16.9 C 6.18 g/m*3 16.9 C 0 km/h
659 27-05-2009 11:46:02 17 C 5.64 g/m*3 17 C 0 km/h
660 27-05-2009 11:58:02 17.5 C 5.37 g/m*3 17.5 C 0 km/h
661 27-05-2009 12:10:01 18.8 C 5.31 g/m*3 18.8 C 0 km/h
662 27-05-2009 12:22:02 18.5 C 4.75 g/m*3 18.5 C 0 km/h
663 27-05-2009 12:34:01 19.1 C 4.59 g/m*3 19.1 C 0 km/h
664 27-05-2009 12:46:02 19.6 C 4.39 g/m*3 19.6 C 0 km/h
665 27-05-2009 12:58:02 17.8 C 4.1 g/m*3 17.8 C 0 km/h
666 27-05-2009 13:10:01 20.1 C 4.35 g/m*3 20.1 C 0 km/h
667 27-05-2009 13:22:01 20.3 C 4.57 g/m*3 20.3 C 0 km/h
668 27-05-2009 13:34:02 20.1 C 3.82 g/m*3 20.1 C 0 km/h
669 27-05-2009 13:46:01 20.8 C 3.8 g/m*3 20.8 C 0 km/h
670 27-05-2009 13:58:01 19.5 C 3.36 g/m*3 19.5 C 0 km/h
671 27-05-2009 14:10:02 19.6 C 3.71 g/m*3 19.6 C 0 km/h
672 27-05-2009 14:22:01 19.8 C 3.76 g/m*3 19.8 C 0 km/h
673 27-05-2009 14:34:01 19.9 C 3.44 g/m*3 19.9 C 0 km/h
674 27-05-2009 14:46:01 20.1 C 3.48 g/m*3 20.1 C 0 km/h
675 27-05-2009 14:58:01 19.4 C 3.84 g/m*3 19.4 C 0 km/h
Sensor: Nr:Datum:Temp:Abs-Feuchte:Windchill:Wind:
Aussen-T/F 676 27-05-2009 15:10:01 19.2 C 4.12 g/m*3 19.2 C 0 km/h
677 27-05-2009 15:22:01 19.3 C 4.31 g/m*3 19.3 C 0 km/h
678 27-05-2009 15:34:01 19.3 C 4.31 g/m*3 19.3 C 0 km/h
679 27-05-2009 15:46:01 19.3 C 4.48 g/m*3 19.3 C 0 km/h
680 27-05-2009 15:58:01 19.5 C 4.53 g/m*3 19.5 C 0 km/h
681 27-05-2009 16:10:01 19.9 C 4.64 g/m*3 19.9 C 0 km/h
682 27-05-2009 16:22:02 19.4 C 4.34 g/m*3 19.4 C 0 km/h
683 27-05-2009 16:34:01 20.3 C 4.57 g/m*3 20.3 C 0 km/h
684 27-05-2009 16:46:02 19.6 C 4.56 g/m*3 19.6 C 0 km/h
685 27-05-2009 16:58:02 19.5 C 4.7 g/m*3 19.5 C 0 km/h
686 27-05-2009 17:10:01 19.1 C 4.43 g/m*3 19.1 C 0 km/h
687 27-05-2009 17:22:01 19.3 C 4.81 g/m*3 19.3 C 0 km/h
688 27-05-2009 17:34:02 18.4 C 4.72 g/m*3 18.4 C 0 km/h
689 27-05-2009 17:46:01 17.9 C 4.89 g/m*3 17.9 C 0 km/h
690 27-05-2009 17:58:01 18 C 4.76 g/m*3 18 C 0 km/h
691 27-05-2009 18:10:02 17.5 C 4.62 g/m*3 17.5 C 0 km/h
692 27-05-2009 18:22:01 17.4 C 4.45 g/m*3 17.4 C 0 km/h
693 27-05-2009 18:34:02 17.2 C 4.39 g/m*3 17.2 C 0 km/h
694 27-05-2009 18:46:01 17.5 C 4.62 g/m*3 17.5 C 0 km/h
695 27-05-2009 18:58:01 17.4 C 4.74 g/m*3 17.4 C 0 km/h
696 27-05-2009 19:10:02 17.5 C 4.92 g/m*3 17.5 C 0 km/h
697 27-05-2009 19:22:01 17.7 C 4.98 g/m*3 17.7 C 0 km/h
698 27-05-2009 19:34:01 17.3 C 4.86 g/m*3 17.3 C 0 km/h
699 27-05-2009 19:46:01 17.2 C 5.13 g/m*3 17.2 C 0 km/h
700 27-05-2009 19:58:01 17.1 C 5.09 g/m*3 17.1 C 0 km/h
Sensor: Nr:Datum:Temp:Abs-Feuchte:Windchill:Wind:
Aussen-T/F 701 27-05-2009 20:10:01 16.8 C 5.15 g/m*3 16.8 C 0 km/h
702 27-05-2009 20:22:02 16.6 C 5.23 g/m*3 16.6 C 0 km/h
703 27-05-2009 20:34:01 16.3 C 5.13 g/m*3 16.3 C 0 km/h
704 27-05-2009 20:46:02 16 C 5.31 g/m*3 16 C 0 km/h
705 27-05-2009 20:58:02 15.5 C 5.02 g/m*3 15.5 C 0 km/h
706 27-05-2009 21:10:01 15 C 5.26 g/m*3 15 C 0 km/h
707 27-05-2009 21:22:01 14.7 C 5.54 g/m*3 14.7 C 0 km/h
708 27-05-2009 21:34:01 14.4 C 5.56 g/m*3 14.4 C 0 km/h
709 27-05-2009 21:46:01 14.5 C 5.72 g/m*3 14.5 C 0 km/h
710 27-05-2009 21:58:01 14.5 C 5.72 g/m*3 14.5 C 0 km/h
711 27-05-2009 22:10:01 14.3 C 5.77 g/m*3 14.3 C 0 km/h
712 27-05-2009 22:22:40 14.2 C 5.74 g/m*3 14.2 C 0 km/h
713 27-05-2009 22:34:40 13.8 C 6.2 g/m*3 13.8 C 0 km/h
714 27-05-2009 22:46:40 13.3 C 6.12 g/m*3 13.3 C 0 km/h
715 27-05-2009 22:58:40 13.5 C 6.32 g/m*3 13.5 C 0 km/h
716 27-05-2009 23:10:41 13.2 C 6.2 g/m*3 13.2 C 0 km/h
717 27-05-2009 23:22:41 13.2 C 6.09 g/m*3 13.2 C 0 km/h
718 27-05-2009 23:34:41 13.3 C 5.89 g/m*3 13.3 C 0 km/h
719 27-05-2009 23:46:41 13.6 C 5.77 g/m*3 13.6 C 0 km/h
720 27-05-2009 23:58:41 13.6 C 5.77 g/m*3 13.6 C 0 km/h
721 28-05-2009 00:10:41 13.4 C 5.7 g/m*3 13.4 C 0 km/h
722 28-05-2009 00:22:41 13.4 C 5.58 g/m*3 13.4 C 0 km/h
723 28-05-2009 00:34:41 13.4 C 5.7 g/m*3 13.4 C 0 km/h
724 28-05-2009 00:46:41 13.3 C 5.66 g/m*3 13.3 C 0 km/h
725 28-05-2009 00:58:41 13.2 C 5.74 g/m*3 13.2 C 0 km/h
Sensor: Nr:Datum:Temp:Abs-Feuchte:Windchill:Wind:
Aussen-T/F 726 28-05-2009 01:10:41 13.2 C 5.86 g/m*3 13.2 C 0 km/h
727 28-05-2009 01:22:41 13.1 C 5.93 g/m*3 13.1 C 0 km/h
728 28-05-2009 01:34:41 13.1 C 6.05 g/m*3 13.1 C 0 km/h
729 28-05-2009 01:46:41 13 C 6.12 g/m*3 13 C 0 km/h
730 28-05-2009 01:58:41 13.1 C 6.28 g/m*3 13.1 C 0 km/h
731 28-05-2009 02:10:41 13.1 C 6.28 g/m*3 13.1 C 0 km/h
732 28-05-2009 02:22:41 12.9 C 6.65 g/m*3 12.9 C 0 km/h
733 28-05-2009 02:34:41 12.3 C 7.06 g/m*3 12.3 C 0 km/h
734 28-05-2009 02:46:41 12.7 C 6.79 g/m*3 12.7 C 0 km/h
735 28-05-2009 02:58:41 12.9 C 6.65 g/m*3 12.9 C 0 km/h
736 28-05-2009 03:10:41 13 C 6.46 g/m*3 13 C 0 km/h
737 28-05-2009 03:22:42 13 C 6.58 g/m*3 13 C 0 km/h
738 28-05-2009 03:34:42 12.7 C 6.68 g/m*3 12.7 C 0 km/h
739 28-05-2009 03:46:42 12.7 C 6.79 g/m*3 12.7 C 0 km/h
740 28-05-2009 03:58:42 12.8 C 6.83 g/m*3 12.8 C 0 km/h
741 28-05-2009 04:10:42 12.9 C 6.88 g/m*3 12.9 C 0 km/h
742 28-05-2009 04:22:42 13 C 6.92 g/m*3 13 C 0 km/h
743 28-05-2009 04:34:42 13 C 6.92 g/m*3 13 C 0 km/h
744 28-05-2009 04:46:42 12.9 C 7.1 g/m*3 12.9 C 0 km/h
745 28-05-2009 04:58:42 12.9 C 7.1 g/m*3 12.9 C 0 km/h
746 28-05-2009 05:10:42 12.8 C 7.17 g/m*3 12.8 C 0 km/h
747 28-05-2009 05:22:40 12.8 C 7.39 g/m*3 12.8 C 0 km/h
748 28-05-2009 05:34:40 12.8 C 7.39 g/m*3 12.8 C 0 km/h
749 28-05-2009 05:46:40 12.9 C 7.55 g/m*3 12.9 C 0 km/h
750 28-05-2009 05:58:40 13 C 7.48 g/m*3 13 C 0 km/h
Sensor: Nr:Datum:Temp:Abs-Feuchte:Windchill:Wind:
Aussen-T/F 751 28-05-2009 06:10:39 13 C 7.48 g/m*3 13 C 0 km/h
752 28-05-2009 06:22:39 13 C 7.48 g/m*3 13 C 0 km/h
753 28-05-2009 06:34:39 13.1 C 7.53 g/m*3 13.1 C 0 km/h
754 28-05-2009 06:46:39 13.2 C 7.58 g/m*3 13.2 C 0 km/h
755 28-05-2009 06:58:40 13.2 C 7.58 g/m*3 13.2 C 0 km/h
756 28-05-2009 07:10:38 13.3 C 7.63 g/m*3 13.3 C 0 km/h
757 28-05-2009 07:22:39 13.4 C 7.67 g/m*3 13.4 C 0 km/h
758 28-05-2009 07:34:38 13.5 C 7.72 g/m*3 13.5 C 0 km/h
759 28-05-2009 07:46:38 13.6 C 7.89 g/m*3 13.6 C 0 km/h
760 28-05-2009 07:58:39 13.6 C 7.77 g/m*3 13.6 C 0 km/h
761 28-05-2009 08:10:38 13.7 C 7.82 g/m*3 13.7 C 0 km/h
762 28-05-2009 08:22:38 13.9 C 7.91 g/m*3 13.9 C 0 km/h
763 28-05-2009 08:34:38 14.1 C 8.01 g/m*3 14.1 C 0 km/h
764 28-05-2009 08:46:38 14.6 C 8.01 g/m*3 14.6 C 0 km/h
765 28-05-2009 08:58:38 14.8 C 7.85 g/m*3 14.8 C 0 km/h
766 28-05-2009 09:10:38 15 C 7.95 g/m*3 15 C 0 km/h
767 28-05-2009 09:22:37 14.9 C 8.03 g/m*3 14.9 C 0 km/h
768 28-05-2009 09:34:37 14.9 C 8.16 g/m*3 14.9 C 0 km/h
769 28-05-2009 09:46:37 15.2 C 8.05 g/m*3 15.2 C 0 km/h
770 28-05-2009 09:58:37 15.3 C 8.23 g/m*3 15.3 C 0 km/h
771 28-05-2009 10:10:37 15.4 C 8.15 g/m*3 15.4 C 0 km/h
772 28-05-2009 10:22:37 15.7 C 8.16 g/m*3 15.7 C 0 km/h
773 28-05-2009 10:34:37 15.3 C 8.23 g/m*3 15.3 C 0 km/h
774 28-05-2009 10:46:37 15.4 C 8.28 g/m*3 15.4 C 0 km/h
775 28-05-2009 10:58:37 16 C 8.31 g/m*3 16 C 0 km/h
Sensor: Nr:Datum:Temp:Abs-Feuchte:Windchill:Wind:
Aussen-T/F 776 28-05-2009 11:10:36 16.4 C 8.37 g/m*3 16.4 C 0 km/h
777 28-05-2009 11:22:36 16.6 C 8.33 g/m*3 16.6 C 0 km/h
778 28-05-2009 11:34:36 16.8 C 8.44 g/m*3 16.8 C 0 km/h
779 28-05-2009 11:46:36 16.7 C 8.53 g/m*3 16.7 C 0 km/h
780 28-05-2009 11:58:37 16.6 C 8.48 g/m*3 16.6 C 0 km/h
781 28-05-2009 12:10:35 16.2 C 8.55 g/m*3 16.2 C 0 km/h
782 28-05-2009 12:22:36 15.6 C 9.04 g/m*3 15.6 C 0 km/h
783 28-05-2009 12:34:36 14.9 C 9.81 g/m*3 14.9 C 0 km/h
784 28-05-2009 12:46:35 14.9 C 10.07 g/m*3 14.9 C 0 km/h
785 28-05-2009 12:58:35 15 C 10.39 g/m*3 15 C 0 km/h
786 28-05-2009 13:10:36 15.6 C 10.91 g/m*3 15.6 C 0 km/h
787 28-05-2009 13:22:35 15.8 C 10.9 g/m*3 15.8 C 0 km/h
788 28-05-2009 13:34:35 15.7 C 10.84 g/m*3 15.7 C 0 km/h
789 28-05-2009 13:46:34 16.8 C 11.72 g/m*3 16.8 C 0 km/h
790 28-05-2009 13:58:34 17 C 11.14 g/m*3 17 C 0 km/h
791 28-05-2009 14:10:35 16 C 10.49 g/m*3 16 C 0 km/h
792 28-05-2009 14:22:35 16.7 C 11.51 g/m*3 16.7 C 0 km/h
793 28-05-2009 14:34:34 18.2 C 11.35 g/m*3 18.2 C 0 km/h
794 28-05-2009 14:46:35 18.5 C 10.6 g/m*3 18.5 C 0 km/h
795 28-05-2009 14:58:35 17.9 C 10.54 g/m*3 17.9 C 0 km/h
796 28-05-2009 15:10:34 16.8 C 10.44 g/m*3 16.8 C 0 km/h
797 28-05-2009 15:22:34 17.1 C 10.77 g/m*3 17.1 C 0 km/h
798 28-05-2009 15:34:33 18.3 C 10.16 g/m*3 18.3 C 0 km/h
799 28-05-2009 15:46:34 19.3 C 9.62 g/m*3 19.3 C 0 km/h
800 28-05-2009 15:58:35 18.5 C 9.97 g/m*3 18.5 C 0 km/h
Sensor: Nr:Datum:Temp:Abs-Feuchte:Windchill:Wind:
Aussen-T/F 801 28-05-2009 16:10:33 18.5 C 9.49 g/m*3 18.5 C 0 km/h
802 28-05-2009 16:22:33 18.3 C 9.22 g/m*3 18.3 C 0 km/h
803 28-05-2009 16:34:34 20.3 C 9.5 g/m*3 20.3 C 0 km/h
804 28-05-2009 16:46:33 20.6 C 8.95 g/m*3 20.6 C 0 km/h
805 28-05-2009 16:58:33 19.4 C 9.01 g/m*3 19.4 C 0 km/h
806 28-05-2009 17:10:33 19.1 C 9.02 g/m*3 19.1 C 0 km/h
807 28-05-2009 17:22:33 19.7 C 9 g/m*3 19.7 C 0 km/h
808 28-05-2009 17:34:33 19.4 C 9.01 g/m*3 19.4 C 0 km/h
809 28-05-2009 17:46:33 19.3 C 8.79 g/m*3 19.3 C 0 km/h
810 28-05-2009 17:58:33 18.9 C 7.94 g/m*3 18.9 C 0 km/h
811 28-05-2009 18:10:32 18.7 C 8.33 g/m*3 18.7 C 0 km/h
812 28-05-2009 18:22:33 18.4 C 8.49 g/m*3 18.4 C 0 km/h
813 28-05-2009 18:34:32 18.3 C 8.44 g/m*3 18.3 C 0 km/h
814 28-05-2009 18:46:32 18.1 C 8.65 g/m*3 18.1 C 0 km/h
815 28-05-2009 18:58:32 18.5 C 8.7 g/m*3 18.5 C 0 km/h
816 28-05-2009 19:10:32 18.5 C 9.02 g/m*3 18.5 C 0 km/h
817 28-05-2009 19:22:31 18 C 9.06 g/m*3 18 C 0 km/h
818 28-05-2009 19:34:31 17.7 C 9.35 g/m*3 17.7 C 0 km/h
819 28-05-2009 19:46:31 17.5 C 9.09 g/m*3 17.5 C 0 km/h
820 28-05-2009 19:58:31 17.5 C 9.09 g/m*3 17.5 C 0 km/h
821 28-05-2009 20:10:31 17.5 C 8.95 g/m*3 17.5 C 0 km/h
822 28-05-2009 20:22:31 17.5 C 9.09 g/m*3 17.5 C 0 km/h
823 28-05-2009 20:34:31 17.5 C 9.09 g/m*3 17.5 C 0 km/h
824 28-05-2009 20:46:31 17.4 C 8.74 g/m*3 17.4 C 0 km/h
825 28-05-2009 20:58:32 17.2 C 8.64 g/m*3 17.2 C 0 km/h
Sensor: Nr:Datum:Temp:Abs-Feuchte:Windchill:Wind:
Aussen-T/F 826 28-05-2009 21:10:31 16.6 C 8.76 g/m*3 16.6 C 0 km/h
827 28-05-2009 21:22:31 16.2 C 8.55 g/m*3 16.2 C 0 km/h
828 28-05-2009 21:34:30 16.3 C 8.05 g/m*3 16.3 C 0 km/h
829 28-05-2009 21:47:31 16.2 C 8 g/m*3 16.2 C 0 km/h
830 28-05-2009 21:59:31 16 C 8.17 g/m*3 16 C 0 km/h
831 28-05-2009 22:11:31 15.8 C 8.21 g/m*3 15.8 C 0 km/h
832 28-05-2009 22:23:31 15.6 C 8.25 g/m*3 15.6 C 0 km/h
833 28-05-2009 22:35:31 15.5 C 8.2 g/m*3 15.5 C 0 km/h
834 28-05-2009 22:47:31 15.7 C 8.16 g/m*3 15.7 C 0 km/h
835 28-05-2009 22:59:31 15.8 C 8.08 g/m*3 15.8 C 0 km/h
836 28-05-2009 23:11:31 15.8 C 8.08 g/m*3 15.8 C 0 km/h
837 28-05-2009 23:23:31 15.6 C 7.98 g/m*3 15.6 C 0 km/h
838 28-05-2009 23:35:31 15.5 C 7.93 g/m*3 15.5 C 0 km/h
839 28-05-2009 23:47:31 15.6 C 7.98 g/m*3 15.6 C 0 km/h
840 28-05-2009 23:59:31 15.6 C 7.71 g/m*3 15.6 C 0 km/h
841 29-05-2009 00:11:31 15.6 C 7.71 g/m*3 15.6 C 0 km/h
842 29-05-2009 00:23:31 15.4 C 7.62 g/m*3 15.4 C 0 km/h
843 29-05-2009 00:35:31 15.1 C 7.61 g/m*3 15.1 C 0 km/h
844 29-05-2009 00:47:31 14.6 C 7.76 g/m*3 14.6 C 0 km/h
845 29-05-2009 00:59:31 14.2 C 7.69 g/m*3 14.2 C 0 km/h
846 29-05-2009 01:11:32 13.9 C 7.91 g/m*3 13.9 C 0 km/h
847 29-05-2009 01:23:32 13.5 C 7.84 g/m*3 13.5 C 0 km/h
848 29-05-2009 01:35:32 13.2 C 7.92 g/m*3 13.2 C 0 km/h
849 29-05-2009 01:47:32 13 C 7.94 g/m*3 13 C 0 km/h
850 29-05-2009 01:59:32 12.8 C 8.06 g/m*3 12.8 C 0 km/h
Sensor: Nr:Datum:Temp:Abs-Feuchte:Windchill:Wind:
Aussen-T/F 851 29-05-2009 02:11:32 12.5 C 8.03 g/m*3 12.5 C 0 km/h
852 29-05-2009 02:23:32 12.2 C 7.88 g/m*3 12.2 C 0 km/h
853 29-05-2009 02:35:32 12.1 C 7.94 g/m*3 12.1 C 0 km/h
854 29-05-2009 02:47:32 11.8 C 8 g/m*3 11.8 C 0 km/h
855 29-05-2009 02:59:32 11.6 C 8 g/m*3 11.6 C 0 km/h
856 29-05-2009 03:11:32 11.4 C 8.01 g/m*3 11.4 C 0 km/h
857 29-05-2009 03:23:32 11.1 C 7.86 g/m*3 11.1 C 0 km/h
858 29-05-2009 03:35:32 10.8 C 7.81 g/m*3 10.8 C 0 km/h
859 29-05-2009 03:47:32 10.6 C 7.71 g/m*3 10.6 C 0 km/h
860 29-05-2009 03:59:32 10.5 C 7.76 g/m*3 10.5 C 0 km/h
861 29-05-2009 04:11:32 10.2 C 7.61 g/m*3 10.2 C 0 km/h
862 29-05-2009 04:23:32 10.1 C 7.56 g/m*3 10.1 C 0 km/h
863 29-05-2009 04:35:32 9.9 C 7.56 g/m*3 9.9 C 0 km/h
864 29-05-2009 04:47:32 9.7 C 7.56 g/m*3 9.7 C 0 km/h
865 29-05-2009 04:59:32 9.6 C 7.51 g/m*3 9.6 C 0 km/h
866 29-05-2009 05:11:33 9.4 C 7.42 g/m*3 9.4 C 0 km/h
867 29-05-2009 05:23:33 9.4 C 7.51 g/m*3 9.4 C 0 km/h
868 29-05-2009 05:35:33 9.4 C 7.6 g/m*3 9.4 C 0 km/h
869 29-05-2009 05:47:33 9.3 C 7.55 g/m*3 9.3 C 0 km/h
870 29-05-2009 05:59:33 9.2 C 7.59 g/m*3 9.2 C 0 km/h
871 29-05-2009 06:11:33 9.1 C 7.54 g/m*3 9.1 C 0 km/h
872 29-05-2009 06:23:33 9.1 C 7.63 g/m*3 9.1 C 0 km/h
873 29-05-2009 06:35:33 9.2 C 7.68 g/m*3 9.2 C 0 km/h
874 29-05-2009 06:47:33 9.2 C 7.68 g/m*3 9.2 C 0 km/h
875 29-05-2009 06:59:33 9.3 C 7.73 g/m*3 9.3 C 0 km/h
Sensor: Nr:Datum:Temp:Abs-Feuchte:Windchill:Wind:
Aussen-T/F 876 29-05-2009 07:11:31 9.5 C 7.83 g/m*3 9.5 C 0 km/h
877 29-05-2009 07:23:30 9.5 C 7.74 g/m*3 9.5 C 0 km/h
878 29-05-2009 07:35:31 9.7 C 7.84 g/m*3 9.7 C 0 km/h
879 29-05-2009 07:47:30 9.8 C 7.79 g/m*3 9.8 C 0 km/h
880 29-05-2009 07:59:30 10.2 C 7.9 g/m*3 10.2 C 0 km/h
881 29-05-2009 08:11:30 10.5 C 7.76 g/m*3 10.5 C 0 km/h
882 29-05-2009 08:23:30 11.1 C 7.05 g/m*3 11.1 C 0 km/h
883 29-05-2009 08:35:30 11.4 C 6.47 g/m*3 11.4 C 0 km/h
884 29-05-2009 08:47:29 11.8 C 6.31 g/m*3 11.8 C 0 km/h
885 29-05-2009 08:59:29 12.2 C 6.15 g/m*3 12.2 C 0 km/h
886 29-05-2009 09:11:29 12.7 C 5.57 g/m*3 12.7 C 0 km/h
887 29-05-2009 09:23:30 13.2 C 5.17 g/m*3 13.2 C 0 km/h
888 29-05-2009 09:35:29 13.6 C 4.71 g/m*3 13.6 C 0 km/h
889 29-05-2009 09:47:29 13.9 C 4.68 g/m*3 13.9 C 0 km/h
890 29-05-2009 09:59:29 14.1 C 3.76 g/m*3 14.1 C 0 km/h
891 29-05-2009 10:11:29 14.7 C 3.9 g/m*3 14.7 C 0 km/h
892 29-05-2009 10:23:29 15 C 4.1 g/m*3 15 C 0 km/h
893 29-05-2009 10:35:28 15.9 C 4.33 g/m*3 15.9 C 0 km/h
894 29-05-2009 10:47:29 15.7 C 4.01 g/m*3 15.7 C 0 km/h
895 29-05-2009 10:59:29 16.6 C 4.24 g/m*3 16.6 C 0 km/h
896 29-05-2009 11:11:28 17.5 C 3.73 g/m*3 17.5 C 0 km/h
897 29-05-2009 11:23:28 17 C 3.04 g/m*3 17 C 0 km/h
898 29-05-2009 11:35:28 17.6 C 3.75 g/m*3 17.6 C 0 km/h
899 29-05-2009 11:47:28 18.8 C 3.7 g/m*3 18.8 C 0 km/h
900 29-05-2009 11:59:28 19.6 C 3.55 g/m*3 19.6 C 0 km/h
Sensor: Nr:Datum:Temp:Abs-Feuchte:Windchill:Wind:
Aussen-T/F 901 29-05-2009 12:11:28 20.3 C 3.52 g/m*3 20.3 C 0 km/h
902 29-05-2009 12:23:27 20.4 C 3.54 g/m*3 20.4 C 0 km/h
903 29-05-2009 12:35:28 21.7 C 3.82 g/m*3 21.7 C 0 km/h
904 29-05-2009 12:47:27 22.6 C 4.02 g/m*3 22.6 C 0 km/h
905 29-05-2009 12:59:27 23.2 C 4.16 g/m*3 23.2 C 0 km/h
906 29-05-2009 13:11:27 23.4 C 4.21 g/m*3 23.4 C 0 km/h
907 29-05-2009 13:23:27 23.7 C 4.28 g/m*3 23.7 C 0 km/h
908 29-05-2009 13:35:27 24.7 C 4.53 g/m*3 24.7 C 0 km/h
909 29-05-2009 13:47:27 24.8 C 4.55 g/m*3 24.8 C 0 km/h
910 29-05-2009 13:59:27 24 C 4.35 g/m*3 24 C 0 km/h
911 29-05-2009 14:11:26 23 C 4.11 g/m*3 23 C 0 km/h
912 29-05-2009 14:23:26 23.1 C 4.13 g/m*3 23.1 C 0 km/h
913 29-05-2009 14:35:26 22.6 C 4.02 g/m*3 22.6 C 0 km/h
914 29-05-2009 14:47:26 23.3 C 4.18 g/m*3 23.3 C 0 km/h
915 29-05-2009 14:59:26 24.6 C 4.5 g/m*3 24.6 C 0 km/h
916 29-05-2009 15:11:26 25 C 4.6 g/m*3 25 C 0 km/h
917 29-05-2009 15:23:26 25.6 C 4.76 g/m*3 25.6 C 0 km/h
918 29-05-2009 15:35:26 26.6 C 5.03 g/m*3 26.6 C 0 km/h
919 29-05-2009 15:47:26 26.2 C 4.92 g/m*3 26.2 C 0 km/h
920 29-05-2009 15:59:26 26.1 C 4.9 g/m*3 26.1 C 0 km/h
921 29-05-2009 16:11:25 27.3 C 5.23 g/m*3 27.3 C 0 km/h
922 29-05-2009 16:23:25 27.4 C 5.26 g/m*3 27.4 C 0 km/h
923 29-05-2009 16:35:25 28.4 C 5.56 g/m*3 28.4 C 0 km/h
924 29-05-2009 16:47:25 27.8 C 5.38 g/m*3 27.8 C 0 km/h
925 29-05-2009 16:59:25 26.4 C 4.98 g/m*3 26.4 C 0 km/h
Sensor: Nr:Datum:Temp:Abs-Feuchte:Windchill:Wind:
Aussen-T/F 926 29-05-2009 17:11:24 28 C 5.44 g/m*3 28 C 0 km/h
927 29-05-2009 17:23:25 28 C 5.44 g/m*3 28 C 0 km/h
928 29-05-2009 17:35:25 29 C 5.74 g/m*3 29 C 0 km/h
929 29-05-2009 17:47:24 28.8 C 5.68 g/m*3 28.8 C 0 km/h
930 29-05-2009 17:59:24 28.3 C 5.53 g/m*3 28.3 C 0 km/h
931 29-05-2009 18:11:25 27.9 C 5.41 g/m*3 27.9 C 0 km/h
932 29-05-2009 18:23:24 28.6 C 5.62 g/m*3 28.6 C 0 km/h
933 29-05-2009 18:35:24 28.7 C 5.65 g/m*3 28.7 C 0 km/h
934 29-05-2009 18:47:24 27.6 C 5.32 g/m*3 27.6 C 0 km/h
935 29-05-2009 18:59:24 27.1 C 5.18 g/m*3 27.1 C 0 km/h
936 29-05-2009 19:11:24 26.9 C 5.12 g/m*3 26.9 C 0 km/h
937 29-05-2009 19:23:24 26.8 C 5.09 g/m*3 26.8 C 0 km/h
938 29-05-2009 19:35:23 26.6 C 5.03 g/m*3 26.6 C 0 km/h
939 29-05-2009 19:47:24 26.2 C 4.92 g/m*3 26.2 C 0 km/h
940 29-05-2009 19:59:24 25.5 C 4.73 g/m*3 25.5 C 0 km/h
941 29-05-2009 20:11:23 24.5 C 4.48 g/m*3 24.5 C 0 km/h
942 29-05-2009 20:23:23 23.7 C 4.28 g/m*3 23.7 C 0 km/h
943 29-05-2009 20:35:02 23.2 C 4.16 g/m*3 23.2 C 0 km/h
944 29-05-2009 20:47:02 22.5 C 4.39 g/m*3 22.5 C 0 km/h
945 29-05-2009 20:59:02 21.6 C 5.12 g/m*3 21.6 C 0 km/h
946 29-05-2009 21:11:02 20.2 C 5.07 g/m*3 20.2 C 0 km/h
947 29-05-2009 21:23:02 19.1 C 4.92 g/m*3 19.1 C 0 km/h
948 29-05-2009 21:35:01 18.4 C 5.03 g/m*3 18.4 C 0 km/h
949 29-05-2009 21:47:02 18.1 C 4.94 g/m*3 18.1 C 0 km/h
950 29-05-2009 21:59:02 18 C 4.92 g/m*3 18 C 0 km/h
Sensor: Nr:Datum:Temp:Abs-Feuchte:Windchill:Wind:
Aussen-T/F 951 29-05-2009 22:11:01 17.8 C 5.16 g/m*3 17.8 C 0 km/h
952 29-05-2009 22:23:01 17.4 C 5.04 g/m*3 17.4 C 0 km/h
953 29-05-2009 22:35:01 16.8 C 5.15 g/m*3 16.8 C 0 km/h
954 29-05-2009 22:48:02 16.4 C 5.02 g/m*3 16.4 C 0 km/h
955 29-05-2009 23:00:02 16.2 C 5.1 g/m*3 16.2 C 0 km/h
956 29-05-2009 23:12:02 15.7 C 5.08 g/m*3 15.7 C 0 km/h
957 29-05-2009 23:24:03 15.4 C 5.12 g/m*3 15.4 C 0 km/h
958 29-05-2009 23:36:03 15 C 5.13 g/m*3 15 C 0 km/h
959 29-05-2009 23:48:03 14.5 C 5.6 g/m*3 14.5 C 0 km/h
960 30-05-2009 00:00:03 14.4 C 5.44 g/m*3 14.4 C 0 km/h
961 30-05-2009 00:12:03 14.3 C 5.65 g/m*3 14.3 C 0 km/h
962 30-05-2009 00:24:03 14.1 C 5.46 g/m*3 14.1 C 0 km/h
963 30-05-2009 00:36:03 13.8 C 5.48 g/m*3 13.8 C 0 km/h
964 30-05-2009 00:48:03 13.5 C 5.38 g/m*3 13.5 C 0 km/h
965 30-05-2009 01:00:03 13.4 C 5.46 g/m*3 13.4 C 0 km/h
966 30-05-2009 01:12:03 13 C 5.67 g/m*3 13 C 0 km/h
967 30-05-2009 01:24:03 12.8 C 5.71 g/m*3 12.8 C 0 km/h
968 30-05-2009 01:36:03 12.7 C 5.57 g/m*3 12.7 C 0 km/h
969 30-05-2009 01:48:03 12.4 C 5.79 g/m*3 12.4 C 0 km/h
970 30-05-2009 02:00:03 12.1 C 5.9 g/m*3 12.1 C 0 km/h
971 30-05-2009 02:12:03 11.9 C 6.04 g/m*3 11.9 C 0 km/h
972 30-05-2009 02:24:03 11.6 C 6.03 g/m*3 11.6 C 0 km/h
973 30-05-2009 02:36:03 11.5 C 5.99 g/m*3 11.5 C 0 km/h
974 30-05-2009 02:48:03 11.5 C 6.09 g/m*3 11.5 C 0 km/h
975 30-05-2009 03:00:03 11.4 C 5.95 g/m*3 11.4 C 0 km/h
Sensor: Nr:Datum:Temp:Abs-Feuchte:Windchill:Wind:
Aussen-T/F 976 30-05-2009 03:12:03 11.4 C 5.75 g/m*3 11.4 C 0 km/h
977 30-05-2009 03:24:04 11.5 C 5.68 g/m*3 11.5 C 0 km/h
978 30-05-2009 03:36:04 11.4 C 5.75 g/m*3 11.4 C 0 km/h
979 30-05-2009 03:48:04 11.3 C 5.71 g/m*3 11.3 C 0 km/h
980 30-05-2009 04:00:04 11.1 C 5.74 g/m*3 11.1 C 0 km/h
981 30-05-2009 04:12:04 11 C 5.91 g/m*3 11 C 0 km/h
982 30-05-2009 04:24:04 10.8 C 5.93 g/m*3 10.8 C 0 km/h
983 30-05-2009 04:36:04 10.8 C 5.93 g/m*3 10.8 C 0 km/h
984 30-05-2009 04:48:04 10.7 C 5.89 g/m*3 10.7 C 0 km/h
985 30-05-2009 05:00:04 10.6 C 5.95 g/m*3 10.6 C 0 km/h
986 30-05-2009 05:12:04 10.4 C 5.88 g/m*3 10.4 C 0 km/h
987 30-05-2009 05:24:04 10.2 C 6.19 g/m*3 10.2 C 0 km/h
988 30-05-2009 05:36:04 10.1 C 6.34 g/m*3 10.1 C 0 km/h
989 30-05-2009 05:48:04 10 C 6.58 g/m*3 10 C 0 km/h
990 30-05-2009 06:00:04 9.9 C 6.54 g/m*3 9.9 C 0 km/h
991 30-05-2009 06:12:04 9.9 C 6.54 g/m*3 9.9 C 0 km/h
992 30-05-2009 06:24:04 9.9 C 6.54 g/m*3 9.9 C 0 km/h
993 30-05-2009 06:36:04 9.9 C 6.72 g/m*3 9.9 C 0 km/h
994 30-05-2009 06:48:04 10 C 6.67 g/m*3 10 C 0 km/h
995 30-05-2009 07:00:04 10.1 C 6.71 g/m*3 10.1 C 0 km/h
996 30-05-2009 07:12:04 10.3 C 6.9 g/m*3 10.3 C 0 km/h
997 30-05-2009 07:24:05 10.5 C 6.89 g/m*3 10.5 C 0 km/h
998 30-05-2009 07:36:02 10.8 C 6.92 g/m*3 10.8 C 0 km/h
999 30-05-2009 07:48:02 11.1 C 6.95 g/m*3 11.1 C 0 km/h
1000 30-05-2009 08:00:02 11.4 C 6.98 g/m*3 11.4 C 0 km/h
Sensor: Nr:Datum:Temp:Abs-Feuchte:Windchill:Wind:
Aussen-T/F 1001 30-05-2009 08:12:01 11.7 C 6.9 g/m*3 11.7 C 0 km/h
1002 30-05-2009 08:24:02 12.3 C 6.84 g/m*3 12.3 C 0 km/h
1003 30-05-2009 08:36:02 12.7 C 6.68 g/m*3 12.7 C 0 km/h
1004 30-05-2009 08:48:01 13.4 C 6.51 g/m*3 13.4 C 0 km/h
1005 30-05-2009 09:00:01 13.8 C 6.31 g/m*3 13.8 C 0 km/h
1006 30-05-2009 09:12:02 14.2 C 6.35 g/m*3 14.2 C 0 km/h
1007 30-05-2009 09:24:01 14.8 C 6.33 g/m*3 14.8 C 0 km/h
1008 30-05-2009 09:36:01 15.3 C 6.4 g/m*3 15.3 C 0 km/h
1009 30-05-2009 09:48:01 15.9 C 6.37 g/m*3 15.9 C 0 km/h
1010 30-05-2009 10:00:01 16.5 C 6.32 g/m*3 16.5 C 0 km/h
1011 30-05-2009 10:12:01 16.9 C 6.04 g/m*3 16.9 C 0 km/h
1012 30-05-2009 10:24:00 17.6 C 6.15 g/m*3 17.6 C 0 km/h
1013 30-05-2009 10:36:00 18.2 C 6.22 g/m*3 18.2 C 0 km/h
1014 30-05-2009 10:48:00 18.9 C 6.48 g/m*3 18.9 C 0 km/h
1015 30-05-2009 11:00:00 19.6 C 6.25 g/m*3 19.6 C 0 km/h
1016 30-05-2009 11:12:00 19.6 C 6.25 g/m*3 19.6 C 0 km/h
1017 30-05-2009 11:24:00 19.9 C 6.19 g/m*3 19.9 C 0 km/h
1018 30-05-2009 11:36:00 20.6 C 6.26 g/m*3 20.6 C 0 km/h
1019 30-05-2009 11:48:00 21.2 C 5.93 g/m*3 21.2 C 0 km/h
1020 30-05-2009 12:00:00 21.4 C 5.44 g/m*3 21.4 C 0 km/h
1021 30-05-2009 12:12:59 23 C 5.34 g/m*3 23 C 0 km/h
1022 30-05-2009 12:24:00 21.6 C 5.5 g/m*3 21.6 C 0 km/h
1023 30-05-2009 12:36:00 22.1 C 5.08 g/m*3 22.1 C 0 km/h
1024 30-05-2009 12:48:59 22 C 5.05 g/m*3 22 C 0 km/h
1025 30-05-2009 13:00:59 21.5 C 5.09 g/m*3 21.5 C 0 km/h
Sensor: Nr:Datum:Temp:Abs-Feuchte:Windchill:Wind:
Aussen-T/F 1026 30-05-2009 13:11:59 24.3 C 5.09 g/m*3 24.3 C 0 km/h
1027 30-05-2009 13:24:59 26.5 C 5.01 g/m*3 26.5 C 0 km/h
1028 30-05-2009 13:36:59 26.6 C 5.03 g/m*3 26.6 C 0 km/h
1029 30-05-2009 13:48:58 25.8 C 4.82 g/m*3 25.8 C 0 km/h
1030 30-05-2009 14:00:59 24.9 C 4.58 g/m*3 24.9 C 0 km/h
1031 30-05-2009 14:13:00 23.2 C 4.16 g/m*3 23.2 C 0 km/h
1032 30-05-2009 14:24:58 22.7 C 4.65 g/m*3 22.7 C 0 km/h
1033 30-05-2009 14:36:58 24.1 C 4.38 g/m*3 24.1 C 0 km/h
1034 30-05-2009 14:48:58 25.7 C 4.79 g/m*3 25.7 C 0 km/h
1035 30-05-2009 15:00:58 25.4 C 4.71 g/m*3 25.4 C 0 km/h
1036 30-05-2009 15:12:58 25.1 C 4.63 g/m*3 25.1 C 0 km/h
1037 30-05-2009 15:24:58 25.7 C 4.79 g/m*3 25.7 C 0 km/h
1038 30-05-2009 15:36:57 26.6 C 5.03 g/m*3 26.6 C 0 km/h
1039 30-05-2009 15:48:58 25.3 C 4.68 g/m*3 25.3 C 0 km/h
1040 30-05-2009 16:00:57 26 C 4.87 g/m*3 26 C 0 km/h
1041 30-05-2009 16:12:57 27.5 C 5.29 g/m*3 27.5 C 0 km/h
1042 30-05-2009 16:24:57 28.2 C 5.5 g/m*3 28.2 C 0 km/h
1043 30-05-2009 16:36:58 28.2 C 5.5 g/m*3 28.2 C 0 km/h
1044 30-05-2009 16:48:57 29.1 C 5.78 g/m*3 29.1 C 0 km/h
1045 30-05-2009 17:00:57 28.6 C 5.62 g/m*3 28.6 C 0 km/h
1046 30-05-2009 17:12:57 28.3 C 5.53 g/m*3 28.3 C 0 km/h
1047 30-05-2009 17:24:57 26.9 C 5.12 g/m*3 26.9 C 0 km/h
1048 30-05-2009 17:36:57 25.1 C 4.63 g/m*3 25.1 C 0 km/h
1049 30-05-2009 17:48:56 27.9 C 5.41 g/m*3 27.9 C 0 km/h
1050 30-05-2009 18:00:56 28.6 C 5.62 g/m*3 28.6 C 0 km/h
Sensor: Nr:Datum:Temp:Abs-Feuchte:Windchill:Wind:
Aussen-T/F 1051 30-05-2009 18:12:57 29.4 C 5.87 g/m*3 29.4 C 0 km/h
1052 30-05-2009 18:24:56 26.6 C 5.03 g/m*3 26.6 C 0 km/h
1053 30-05-2009 18:36:56 25.2 C 4.66 g/m*3 25.2 C 0 km/h
1054 30-05-2009 18:48:55 25.7 C 4.79 g/m*3 25.7 C 0 km/h
1055 30-05-2009 19:00:56 26.9 C 5.12 g/m*3 26.9 C 0 km/h
1056 30-05-2009 19:12:56 27.2 C 5.2 g/m*3 27.2 C 0 km/h
1057 30-05-2009 19:24:56 27.1 C 5.18 g/m*3 27.1 C 0 km/h
1058 30-05-2009 19:36:55 26.8 C 5.09 g/m*3 26.8 C 0 km/h
1059 30-05-2009 19:48:56 26.1 C 4.9 g/m*3 26.1 C 0 km/h
1060 30-05-2009 20:00:55 25.5 C 4.73 g/m*3 25.5 C 0 km/h
1061 30-05-2009 20:12:55 25.1 C 4.86 g/m*3 25.1 C 0 km/h
1062 30-05-2009 20:24:55 24.5 C 4.92 g/m*3 24.5 C 0 km/h
1063 30-05-2009 20:36:55 23.6 C 5.32 g/m*3 23.6 C 0 km/h
1064 30-05-2009 20:48:55 22.6 C 5.42 g/m*3 22.6 C 0 km/h
1065 30-05-2009 21:00:55 21.6 C 5.88 g/m*3 21.6 C 0 km/h
1066 30-05-2009 21:12:56 20.9 C 6.19 g/m*3 20.9 C 0 km/h
1067 30-05-2009 21:24:54 20.4 C 6.19 g/m*3 20.4 C 0 km/h
1068 30-05-2009 21:36:54 19.7 C 6.28 g/m*3 19.7 C 0 km/h
1069 30-05-2009 21:48:54 19.6 C 6.58 g/m*3 19.6 C 0 km/h
1070 30-05-2009 22:00:54 18.9 C 6.48 g/m*3 18.9 C 0 km/h
1071 30-05-2009 22:12:54 18.7 C 6.72 g/m*3 18.7 C 0 km/h
1072 30-05-2009 22:24:54 18.2 C 6.53 g/m*3 18.2 C 0 km/h
1073 30-05-2009 22:36:54 17.8 C 6.68 g/m*3 17.8 C 0 km/h
1074 30-05-2009 22:48:54 17.5 C 6.71 g/m*3 17.5 C 0 km/h
1075 30-05-2009 23:01:54 17.5 C 6.86 g/m*3 17.5 C 0 km/h
Sensor: Nr:Datum:Temp:Abs-Feuchte:Windchill:Wind:
Aussen-T/F 1076 30-05-2009 23:13:54 17.3 C 6.78 g/m*3 17.3 C 0 km/h
1077 30-05-2009 23:25:54 17.2 C 6.88 g/m*3 17.2 C 0 km/h
1078 30-05-2009 23:37:54 17 C 6.95 g/m*3 17 C 0 km/h
1079 30-05-2009 23:49:54 17 C 6.95 g/m*3 17 C 0 km/h
1080 31-05-2009 00:01:54 16.6 C 6.92 g/m*3 16.6 C 0 km/h
1081 31-05-2009 00:13:54 16.4 C 7.12 g/m*3 16.4 C 0 km/h
1082 31-05-2009 00:25:54 16.3 C 7.21 g/m*3 16.3 C 0 km/h
1083 31-05-2009 00:37:54 16.6 C 7.35 g/m*3 16.6 C 0 km/h
1084 31-05-2009 00:49:55 16.7 C 7.39 g/m*3 16.7 C 0 km/h
1085 31-05-2009 01:01:55 16.7 C 7.39 g/m*3 16.7 C 0 km/h
1086 31-05-2009 01:13:55 16.4 C 7.4 g/m*3 16.4 C 0 km/h
1087 31-05-2009 01:25:55 16 C 7.36 g/m*3 16 C 0 km/h
1088 31-05-2009 01:37:55 15.5 C 7.4 g/m*3 15.5 C 0 km/h
1089 31-05-2009 01:49:55 15.6 C 7.71 g/m*3 15.6 C 0 km/h
1090 31-05-2009 02:01:55 15.8 C 7.67 g/m*3 15.8 C 0 km/h
1091 31-05-2009 02:13:55 15.8 C 7.67 g/m*3 15.8 C 0 km/h
1092 31-05-2009 02:25:55 15.7 C 7.76 g/m*3 15.7 C 0 km/h
1093 31-05-2009 02:37:55 15.9 C 7.85 g/m*3 15.9 C 0 km/h
1094 31-05-2009 02:49:55 15.9 C 7.85 g/m*3 15.9 C 0 km/h
1095 31-05-2009 03:01:55 15.8 C 7.81 g/m*3 15.8 C 0 km/h
1096 31-05-2009 03:13:55 15.9 C 7.72 g/m*3 15.9 C 0 km/h
1097 31-05-2009 03:25:55 15.6 C 7.71 g/m*3 15.6 C 0 km/h
1098 31-05-2009 03:37:55 15.5 C 7.8 g/m*3 15.5 C 0 km/h
1099 31-05-2009 03:49:55 15.5 C 7.8 g/m*3 15.5 C 0 km/h
1100 31-05-2009 04:01:55 15.6 C 7.98 g/m*3 15.6 C 0 km/h
Sensor: Nr:Datum:Temp:Abs-Feuchte:Windchill:Wind:
Aussen-T/F 1101 31-05-2009 04:13:55 15.5 C 7.93 g/m*3 15.5 C 0 km/h
1102 31-05-2009 04:25:55 15.2 C 7.92 g/m*3 15.2 C 0 km/h
1103 31-05-2009 04:37:56 15.4 C 8.01 g/m*3 15.4 C 0 km/h
1104 31-05-2009 04:49:56 15.5 C 8.06 g/m*3 15.5 C 0 km/h
1105 31-05-2009 05:01:56 15.5 C 8.06 g/m*3 15.5 C 0 km/h
1106 31-05-2009 05:13:56 15.4 C 8.01 g/m*3 15.4 C 0 km/h
1107 31-05-2009 05:25:56 15.4 C 8.01 g/m*3 15.4 C 0 km/h
1108 31-05-2009 05:37:56 15.4 C 8.01 g/m*3 15.4 C 0 km/h
1109 31-05-2009 05:49:56 15.4 C 8.15 g/m*3 15.4 C 0 km/h
1110 31-05-2009 06:01:56 15.3 C 8.1 g/m*3 15.3 C 0 km/h
1111 31-05-2009 06:13:56 15.4 C 8.28 g/m*3 15.4 C 0 km/h
1112 31-05-2009 06:25:56 15.6 C 8.38 g/m*3 15.6 C 0 km/h
1113 31-05-2009 06:37:56 15.8 C 8.35 g/m*3 15.8 C 0 km/h
1114 31-05-2009 06:49:56 15.9 C 8.4 g/m*3 15.9 C 0 km/h
1115 31-05-2009 07:01:56 16 C 8.31 g/m*3 16 C 0 km/h
1116 31-05-2009 07:13:56 15.9 C 8.26 g/m*3 15.9 C 0 km/h
1117 31-05-2009 07:25:56 16 C 8.31 g/m*3 16 C 0 km/h
1118 31-05-2009 07:37:56 16 C 8.58 g/m*3 16 C 0 km/h
1119 31-05-2009 07:49:56 16 C 8.58 g/m*3 16 C 0 km/h
1120 31-05-2009 08:01:54 15.9 C 8.67 g/m*3 15.9 C 0 km/h
1121 31-05-2009 08:13:54 16.2 C 8.83 g/m*3 16.2 C 0 km/h
1122 31-05-2009 08:25:54 16.7 C 8.95 g/m*3 16.7 C 0 km/h
1123 31-05-2009 08:37:53 17.5 C 8.8 g/m*3 17.5 C 0 km/h
1124 31-05-2009 08:49:54 17.6 C 8.7 g/m*3 17.6 C 0 km/h
1125 31-05-2009 09:01:53 17.7 C 8.75 g/m*3 17.7 C 0 km/h
Sensor: Nr:Datum:Temp:Abs-Feuchte:Windchill:Wind:
Aussen-T/F 1126 31-05-2009 09:13:53 18.3 C 8.6 g/m*3 18.3 C 0 km/h
1127 31-05-2009 09:25:53 18.6 C 8.59 g/m*3 18.6 C 0 km/h
1128 31-05-2009 09:37:54 18.9 C 8.59 g/m*3 18.9 C 0 km/h
1129 31-05-2009 09:49:53 18.9 C 8.26 g/m*3 18.9 C 0 km/h
1130 31-05-2009 10:01:53 19.3 C 8.29 g/m*3 19.3 C 0 km/h
1131 31-05-2009 10:13:53 20.1 C 8.34 g/m*3 20.1 C 0 km/h
1132 31-05-2009 10:25:53 20.4 C 7.96 g/m*3 20.4 C 0 km/h
1133 31-05-2009 10:37:53 20.5 C 8.01 g/m*3 20.5 C 0 km/h
1134 31-05-2009 10:49:52 20.5 C 8.19 g/m*3 20.5 C 0 km/h
1135 31-05-2009 11:01:53 20.9 C 8.01 g/m*3 20.9 C 0 km/h
1136 31-05-2009 11:13:54 21.2 C 7.78 g/m*3 21.2 C 0 km/h
1137 31-05-2009 11:25:52 21.4 C 7.5 g/m*3 21.4 C 0 km/h
1138 31-05-2009 11:37:52 21.9 C 7.53 g/m*3 21.9 C 0 km/h
1139 31-05-2009 11:49:51 22.4 C 7.35 g/m*3 22.4 C 0 km/h
1140 31-05-2009 12:01:52 23.3 C 7.11 g/m*3 23.3 C 0 km/h
1141 31-05-2009 12:13:52 23.9 C 7.14 g/m*3 23.9 C 0 km/h
1142 31-05-2009 12:25:52 23 C 6.78 g/m*3 23 C 0 km/h
1143 31-05-2009 12:37:51 22.7 C 7.07 g/m*3 22.7 C 0 km/h
1144 31-05-2009 12:49:52 22.2 C 7.07 g/m*3 22.2 C 0 km/h
1145 31-05-2009 13:01:51 23.1 C 6.82 g/m*3 23.1 C 0 km/h
1146 31-05-2009 13:13:51 25.6 C 6.43 g/m*3 25.6 C 0 km/h
1147 31-05-2009 13:25:51 26.1 C 5.39 g/m*3 26.1 C 0 km/h
1148 31-05-2009 13:37:51 23.5 C 6.13 g/m*3 23.5 C 0 km/h
1149 31-05-2009 13:49:51 23.1 C 5.99 g/m*3 23.1 C 0 km/h
1150 31-05-2009 14:01:51 24.5 C 6.49 g/m*3 24.5 C 0 km/h
Sensor: Nr:Datum:Temp:Abs-Feuchte:Windchill:Wind:
Aussen-T/F 1151 31-05-2009 14:13:51 25 C 6.22 g/m*3 25 C 0 km/h
1152 31-05-2009 14:25:50 25.4 C 5.89 g/m*3 25.4 C 0 km/h
1153 31-05-2009 14:37:51 25.7 C 5.99 g/m*3 25.7 C 0 km/h
1154 31-05-2009 14:49:50 25.6 C 5.95 g/m*3 25.6 C 0 km/h
1155 31-05-2009 15:01:50 25.8 C 5.3 g/m*3 25.8 C 0 km/h
1156 31-05-2009 15:13:50 26.3 C 5.2 g/m*3 26.3 C 0 km/h
1157 31-05-2009 15:25:50 25.6 C 5 g/m*3 25.6 C 0 km/h
1158 31-05-2009 15:37:50 26.7 C 5.32 g/m*3 26.7 C 0 km/h
1159 31-05-2009 15:49:49 27.4 C 5.26 g/m*3 27.4 C 0 km/h
1160 31-05-2009 16:01:50 27.1 C 5.18 g/m*3 27.1 C 0 km/h
1161 31-05-2009 16:13:50 27.1 C 5.18 g/m*3 27.1 C 0 km/h
1162 31-05-2009 16:25:50 28.1 C 5.47 g/m*3 28.1 C 0 km/h
1163 31-05-2009 16:37:49 27.1 C 5.18 g/m*3 27.1 C 0 km/h
1164 31-05-2009 16:49:50 27 C 5.15 g/m*3 27 C 0 km/h
1165 31-05-2009 17:01:49 25.4 C 5.41 g/m*3 25.4 C 0 km/h
1166 31-05-2009 17:13:49 25.5 C 5.21 g/m*3 25.5 C 0 km/h
1167 31-05-2009 17:25:49 25.8 C 5.3 g/m*3 25.8 C 0 km/h
1168 31-05-2009 17:37:48 25.8 C 5.54 g/m*3 25.8 C 0 km/h
1169 31-05-2009 17:49:49 25.5 C 5.21 g/m*3 25.5 C 0 km/h
1170 31-05-2009 18:01:48 24.8 C 5.46 g/m*3 24.8 C 0 km/h
1171 31-05-2009 18:13:48 27.5 C 5.29 g/m*3 27.5 C 0 km/h
1172 31-05-2009 18:25:48 25.6 C 5.24 g/m*3 25.6 C 0 km/h
1173 31-05-2009 18:37:49 25.7 C 5.75 g/m*3 25.7 C 0 km/h
1174 31-05-2009 18:49:48 27 C 5.4 g/m*3 27 C 0 km/h
1175 31-05-2009 19:01:48 27.5 C 5.56 g/m*3 27.5 C 0 km/h
Sensor: Nr:Datum:Temp:Abs-Feuchte:Windchill:Wind:
Aussen-T/F 1176 31-05-2009 19:13:48 27.5 C 5.56 g/m*3 27.5 C 0 km/h
1177 31-05-2009 19:25:48 27.6 C 5.59 g/m*3 27.6 C 0 km/h
1178 31-05-2009 19:37:47 26.8 C 5.6 g/m*3 26.8 C 0 km/h
1179 31-05-2009 19:49:48 25.6 C 5.95 g/m*3 25.6 C 0 km/h
1180 31-05-2009 20:01:47 24.1 C 5.69 g/m*3 24.1 C 0 km/h
1181 31-05-2009 20:13:47 24.1 C 5.91 g/m*3 24.1 C 0 km/h
1182 31-05-2009 20:25:48 23.3 C 6.06 g/m*3 23.3 C 0 km/h
1183 31-05-2009 20:37:47 22.9 C 6.34 g/m*3 22.9 C 0 km/h
1184 31-05-2009 20:49:47 22.2 C 6.48 g/m*3 22.2 C 0 km/h
1185 31-05-2009 21:01:47 21.4 C 6.75 g/m*3 21.4 C 0 km/h
1186 31-05-2009 21:13:47 20.8 C 6.88 g/m*3 20.8 C 0 km/h
1187 31-05-2009 21:25:47 20 C 6.57 g/m*3 20 C 0 km/h
1188 31-05-2009 21:37:46 19.6 C 6.75 g/m*3 19.6 C 0 km/h
1189 31-05-2009 21:49:47 19.2 C 6.76 g/m*3 19.2 C 0 km/h
1190 31-05-2009 22:01:46 18.9 C 6.97 g/m*3 18.9 C 0 km/h
1191 31-05-2009 22:13:46 18.6 C 7 g/m*3 18.6 C 0 km/h
1192 31-05-2009 22:25:46 18.4 C 7.08 g/m*3 18.4 C 0 km/h
1193 31-05-2009 22:37:46 18 C 7.07 g/m*3 18 C 0 km/h
1194 31-05-2009 22:49:01 17.8 C 7.29 g/m*3 17.8 C 0 km/h
1195 31-05-2009 23:01:01 17.7 C 7.24 g/m*3 17.7 C 0 km/h
1196 31-05-2009 23:13:01 17.4 C 7.26 g/m*3 17.4 C 0 km/h
1197 31-05-2009 23:25:01 17.2 C 7.32 g/m*3 17.2 C 0 km/h
1198 31-05-2009 23:37:01 16.9 C 7.34 g/m*3 16.9 C 0 km/h
1199 31-05-2009 23:49:00 16.6 C 7.35 g/m*3 16.6 C 0 km/h
1200 01-06-2009 00:01:00 16.6 C 7.49 g/m*3 16.6 C 0 km/h
Sensor: Nr:Datum:Temp:Abs-Feuchte:Windchill:Wind:
Aussen-T/F 1201 01-06-2009 00:13:00 16.3 C 7.49 g/m*3 16.3 C 0 km/h
1202 01-06-2009 00:26:01 16.1 C 7.54 g/m*3 16.1 C 0 km/h
1203 01-06-2009 00:38:01 15.9 C 7.85 g/m*3 15.9 C 0 km/h
1204 01-06-2009 00:50:01 15.6 C 7.85 g/m*3 15.6 C 0 km/h
1205 01-06-2009 01:02:01 15.6 C 7.98 g/m*3 15.6 C 0 km/h
1206 01-06-2009 01:14:01 15.2 C 7.92 g/m*3 15.2 C 0 km/h
1207 01-06-2009 01:26:01 14.9 C 7.9 g/m*3 14.9 C 0 km/h
1208 01-06-2009 01:38:01 14.8 C 8.11 g/m*3 14.8 C 0 km/h
1209 01-06-2009 01:50:01 14.6 C 8.01 g/m*3 14.6 C 0 km/h
1210 01-06-2009 02:02:01 14.5 C 7.96 g/m*3 14.5 C 0 km/h
1211 01-06-2009 02:14:01 14.3 C 8.11 g/m*3 14.3 C 0 km/h
1212 01-06-2009 02:26:01 14.1 C 8.13 g/m*3 14.1 C 0 km/h
1213 01-06-2009 02:38:01 13.7 C 8.05 g/m*3 13.7 C 0 km/h
1214 01-06-2009 02:50:01 13.8 C 8.22 g/m*3 13.8 C 0 km/h
1215 01-06-2009 03:02:01 13.6 C 8.24 g/m*3 13.6 C 0 km/h
1216 01-06-2009 03:14:01 13.4 C 8.25 g/m*3 13.4 C 0 km/h
1217 01-06-2009 03:26:01 13.3 C 8.2 g/m*3 13.3 C 0 km/h
1218 01-06-2009 03:38:01 13.1 C 8.22 g/m*3 13.1 C 0 km/h
1219 01-06-2009 03:50:01 13 C 8.28 g/m*3 13 C 0 km/h
1220 01-06-2009 04:02:01 12.9 C 8.34 g/m*3 12.9 C 0 km/h
1221 01-06-2009 04:14:02 12.8 C 8.4 g/m*3 12.8 C 0 km/h
1222 01-06-2009 04:26:02 12.6 C 8.3 g/m*3 12.6 C 0 km/h
1223 01-06-2009 04:38:02 12.5 C 8.36 g/m*3 12.5 C 0 km/h
1224 01-06-2009 04:50:02 12.4 C 8.3 g/m*3 12.4 C 0 km/h
1225 01-06-2009 05:02:02 12.2 C 8.2 g/m*3 12.2 C 0 km/h
Sensor: Nr:Datum:Temp:Abs-Feuchte:Windchill:Wind:
Aussen-T/F 1226 01-06-2009 05:14:02 12.3 C 8.25 g/m*3 12.3 C 0 km/h
1227 01-06-2009 05:26:02 12.4 C 8.41 g/m*3 12.4 C 0 km/h
1228 01-06-2009 05:38:02 12.6 C 8.52 g/m*3 12.6 C 0 km/h
1229 01-06-2009 05:50:02 12.8 C 8.51 g/m*3 12.8 C 0 km/h
1230 01-06-2009 06:02:02 12.8 C 8.51 g/m*3 12.8 C 0 km/h
1231 01-06-2009 06:14:02 13 C 8.39 g/m*3 13 C 0 km/h
1232 01-06-2009 06:26:02 13.2 C 8.5 g/m*3 13.2 C 0 km/h
1233 01-06-2009 06:38:02 13.2 C 8.38 g/m*3 13.2 C 0 km/h
1234 01-06-2009 06:50:02 13.5 C 8.54 g/m*3 13.5 C 0 km/h
1235 01-06-2009 07:02:02 13.5 C 8.54 g/m*3 13.5 C 0 km/h
1236 01-06-2009 07:14:02 13.6 C 8.59 g/m*3 13.6 C 0 km/h
1237 01-06-2009 07:26:02 13.8 C 8.7 g/m*3 13.8 C 0 km/h
1238 01-06-2009 07:38:02 14.3 C 8.72 g/m*3 14.3 C 0 km/h
1239 01-06-2009 07:50:02 14.4 C 8.65 g/m*3 14.4 C 0 km/h
1240 01-06-2009 08:02:03 14.3 C 8.72 g/m*3 14.3 C 0 km/h
1241 01-06-2009 08:14:03 14.5 C 8.83 g/m*3 14.5 C 0 km/h
1242 01-06-2009 08:26:03 15.1 C 8.9 g/m*3 15.1 C 0 km/h
1243 01-06-2009 08:38:01 15.9 C 8.94 g/m*3 15.9 C 0 km/h
1244 01-06-2009 08:50:01 16.9 C 8.92 g/m*3 16.9 C 0 km/h
1245 01-06-2009 09:02:00 17.1 C 8.73 g/m*3 17.1 C 0 km/h
1246 01-06-2009 09:14:00 17.6 C 9 g/m*3 17.6 C 0 km/h
1247 01-06-2009 09:26:01 18.2 C 8.7 g/m*3 18.2 C 0 km/h
1248 01-06-2009 09:38:01 18.3 C 8.76 g/m*3 18.3 C 0 km/h
1249 01-06-2009 09:50:00 18.7 C 8.81 g/m*3 18.7 C 0 km/h
1250 01-06-2009 10:02:01 19.6 C 8.78 g/m*3 19.6 C 0 km/h
Sensor: Nr:Datum:Temp:Abs-Feuchte:Windchill:Wind:
Aussen-T/F 1251 01-06-2009 10:14:01 20.1 C 8.52 g/m*3 20.1 C 0 km/h
1252 01-06-2009 10:26:00 20.8 C 8.87 g/m*3 20.8 C 0 km/h
1253 01-06-2009 10:38:00 21.7 C 9.16 g/m*3 21.7 C 0 km/h
1254 01-06-2009 10:50:00 22.1 C 8.39 g/m*3 22.1 C 0 km/h
1255 01-06-2009 11:14:00 22.5 C 8.39 g/m*3 22.5 C 0 km/h
1256 01-06-2009 11:14:00 22.8 C 8.53 g/m*3 22.8 C 0 km/h
1257 01-06-2009 11:14:00 22.5 C 8.39 g/m*3 22.5 C 0 km/h
1258 01-06-2009 11:14:00 22.8 C 8.53 g/m*3 22.8 C 0 km/h
1259 01-06-2009 11:26:00 22.6 C 8.44 g/m*3 22.6 C 0 km/h
1260 01-06-2009 11:37:59 23.3 C 8.15 g/m*3 23.3 C 0 km/h
1261 01-06-2009 11:50:59 24.5 C 8.06 g/m*3 24.5 C 0 km/h
1262 01-06-2009 12:02:59 24.5 C 7.83 g/m*3 24.5 C 0 km/h
1263 01-06-2009 12:14:58 25.7 C 7.42 g/m*3 25.7 C 0 km/h
1264 01-06-2009 12:26:58 26.5 C 7.76 g/m*3 26.5 C 0 km/h
1265 01-06-2009 12:38:59 26.8 C 7.38 g/m*3 26.8 C 0 km/h
1266 01-06-2009 12:50:58 26.2 C 7.39 g/m*3 26.2 C 0 km/h
1267 01-06-2009 13:02:58 25.4 C 8.24 g/m*3 25.4 C 0 km/h
1268 01-06-2009 13:14:59 24.8 C 8.65 g/m*3 24.8 C 0 km/h
1269 01-06-2009 13:26:59 25.6 C 8.09 g/m*3 25.6 C 0 km/h
1270 01-06-2009 13:38:58 25.7 C 8.38 g/m*3 25.7 C 0 km/h
1271 01-06-2009 13:50:58 24.4 C 8.46 g/m*3 24.4 C 0 km/h
1272 01-06-2009 14:02:58 19.6 C 9.12 g/m*3 19.6 C 0 km/h
1273 01-06-2009 14:14:58 19 C 11.73 g/m*3 19 C 0 km/h
1274 01-06-2009 14:26:59 20.1 C 12.69 g/m*3 20.1 C 0 km/h
1275 01-06-2009 14:38:57 22.4 C 11.12 g/m*3 22.4 C 0 km/h
Sensor: Nr:Datum:Temp:Abs-Feuchte:Windchill:Wind:
Aussen-T/F 1276 01-06-2009 14:50:57 22.7 C 11.11 g/m*3 22.7 C 0 km/h
1277 01-06-2009 15:02:57 22.1 C 12.1 g/m*3 22.1 C 0 km/h
1278 01-06-2009 15:14:57 22.6 C 12.25 g/m*3 22.6 C 0 km/h
1279 01-06-2009 15:26:57 23.7 C 11.55 g/m*3 23.7 C 0 km/h
1280 01-06-2009 15:38:57 23.6 C 11.91 g/m*3 23.6 C 0 km/h
1281 01-06-2009 15:50:57 24.6 C 11.25 g/m*3 24.6 C 0 km/h
1282 01-06-2009 16:02:57 25.9 C 9.44 g/m*3 25.9 C 0 km/h
1283 01-06-2009 16:14:56 26.9 C 8.7 g/m*3 26.9 C 0 km/h
1284 01-06-2009 16:26:56 28.8 C 7.39 g/m*3 28.8 C 0 km/h
1285 01-06-2009 16:38:56 29.4 C 6.75 g/m*3 29.4 C 0 km/h
1286 01-06-2009 16:50:56 25.6 C 6.9 g/m*3 25.6 C 0 km/h
1287 01-06-2009 17:02:56 21.6 C 11.57 g/m*3 21.6 C 0 km/h
1288 01-06-2009 17:14:56 22.4 C 11.72 g/m*3 22.4 C 0 km/h
1289 01-06-2009 17:26:56 23.3 C 11.5 g/m*3 23.3 C 0 km/h
1290 01-06-2009 17:38:56 24.3 C 10.4 g/m*3 24.3 C 0 km/h
1291 01-06-2009 17:50:56 24.7 C 9.96 g/m*3 24.7 C 0 km/h
1292 01-06-2009 18:02:55 24.7 C 9.51 g/m*3 24.7 C 0 km/h
1293 01-06-2009 18:14:56 25.4 C 8.95 g/m*3 25.4 C 0 km/h
1294 01-06-2009 18:26:57 25.9 C 9.44 g/m*3 25.9 C 0 km/h
1295 01-06-2009 18:38:55 28 C 8.16 g/m*3 28 C 0 km/h
1296 01-06-2009 18:50:55 27.4 C 8.95 g/m*3 27.4 C 0 km/h
1297 01-06-2009 19:02:54 25.6 C 8.81 g/m*3 25.6 C 0 km/h
1298 01-06-2009 19:14:55 23.7 C 8.34 g/m*3 23.7 C 0 km/h
1299 01-06-2009 19:26:55 24.2 C 8.14 g/m*3 24.2 C 0 km/h
1300 01-06-2009 19:38:55 25.3 C 8.19 g/m*3 25.3 C 0 km/h
Sensor: Nr:Datum:Temp:Abs-Feuchte:Windchill:Wind:
Aussen-T/F 1301 01-06-2009 19:50:54 25.3 C 7.73 g/m*3 25.3 C 0 km/h
1302 01-06-2009 20:02:55 25.2 C 7.68 g/m*3 25.2 C 0 km/h
1303 01-06-2009 20:14:54 24.9 C 7.78 g/m*3 24.9 C 0 km/h
1304 01-06-2009 20:26:54 24.5 C 7.61 g/m*3 24.5 C 0 km/h
1305 01-06-2009 20:38:54 23.7 C 7.49 g/m*3 23.7 C 0 km/h
1306 01-06-2009 20:50:54 22.6 C 7.83 g/m*3 22.6 C 0 km/h
1307 01-06-2009 21:02:53 22.1 C 8.59 g/m*3 22.1 C 0 km/h
1308 01-06-2009 21:14:54 21.1 C 8.48 g/m*3 21.1 C 0 km/h
1309 01-06-2009 21:26:54 20.3 C 8.62 g/m*3 20.3 C 0 km/h
1310 01-06-2009 21:38:54 19.7 C 8.49 g/m*3 19.7 C 0 km/h
1311 01-06-2009 21:50:53 19.3 C 8.63 g/m*3 19.3 C 0 km/h
1312 01-06-2009 22:02:54 19 C 8.64 g/m*3 19 C 0 km/h
1313 01-06-2009 22:14:53 18.6 C 8.91 g/m*3 18.6 C 0 km/h
1314 01-06-2009 22:26:53 18.4 C 8.81 g/m*3 18.4 C 0 km/h
1315 01-06-2009 22:39:09 18.1 C 8.96 g/m*3 18.1 C 0 km/h
1316 01-06-2009 22:51:09 17.8 C 9.11 g/m*3 17.8 C 0 km/h
1317 01-06-2009 23:03:09 17.4 C 8.89 g/m*3 17.4 C 0 km/h
1318 01-06-2009 23:15:09 17.2 C 8.93 g/m*3 17.2 C 0 km/h
1319 01-06-2009 23:27:09 17 C 9.12 g/m*3 17 C 0 km/h
1320 01-06-2009 23:39:09 16.9 C 9.21 g/m*3 16.9 C 0 km/h
1321 01-06-2009 23:51:09 16.6 C 9.18 g/m*3 16.6 C 0 km/h
1322 02-06-2009 00:03:09 16.4 C 9.21 g/m*3 16.4 C 0 km/h
1323 02-06-2009 00:15:09 16.1 C 9.18 g/m*3 16.1 C 0 km/h
1324 02-06-2009 00:27:09 16 C 9.26 g/m*3 16 C 0 km/h
1325 02-06-2009 00:39:09 15.8 C 9.56 g/m*3 15.8 C 0 km/h
Sensor: Nr:Datum:Temp:Abs-Feuchte:Windchill:Wind:
Aussen-T/F 1326 02-06-2009 00:51:09 15.5 C 9.65 g/m*3 15.5 C 0 km/h
1327 02-06-2009 01:03:09 15.3 C 9.66 g/m*3 15.3 C 0 km/h
1328 02-06-2009 01:15:09 15 C 9.62 g/m*3 15 C 0 km/h
1329 02-06-2009 01:27:10 14.9 C 9.69 g/m*3 14.9 C 0 km/h
1330 02-06-2009 01:39:10 14.7 C 9.82 g/m*3 14.7 C 0 km/h
1331 02-06-2009 01:51:10 14.6 C 9.76 g/m*3 14.6 C 0 km/h
1332 02-06-2009 02:03:10 14.4 C 9.64 g/m*3 14.4 C 0 km/h
1333 02-06-2009 02:15:10 14.1 C 9.59 g/m*3 14.1 C 0 km/h
1334 02-06-2009 02:27:10 14 C 9.65 g/m*3 14 C 0 km/h
1335 02-06-2009 02:39:10 13.7 C 9.59 g/m*3 13.7 C 0 km/h
1336 02-06-2009 02:51:10 13.7 C 9.59 g/m*3 13.7 C 0 km/h
1337 02-06-2009 03:03:10 13.7 C 9.59 g/m*3 13.7 C 0 km/h
1338 02-06-2009 03:15:10 13.5 C 9.59 g/m*3 13.5 C 0 km/h
1339 02-06-2009 03:27:10 13.4 C 9.53 g/m*3 13.4 C 0 km/h
1340 02-06-2009 03:39:10 13.4 C 9.53 g/m*3 13.4 C 0 km/h
1341 02-06-2009 03:51:10 13.4 C 9.53 g/m*3 13.4 C 0 km/h
1342 02-06-2009 04:03:10 13.4 C 9.42 g/m*3 13.4 C 0 km/h
1343 02-06-2009 04:15:10 13.2 C 9.3 g/m*3 13.2 C 0 km/h
1344 02-06-2009 04:27:10 13 C 9.19 g/m*3 13 C 0 km/h
1345 02-06-2009 04:39:10 12.9 C 9.35 g/m*3 12.9 C 0 km/h
1346 02-06-2009 04:51:10 12.8 C 9.3 g/m*3 12.8 C 0 km/h
1347 02-06-2009 05:03:10 12.7 C 9.35 g/m*3 12.7 C 0 km/h
1348 02-06-2009 05:15:11 12.5 C 9.24 g/m*3 12.5 C 0 km/h
1349 02-06-2009 05:27:11 12.4 C 9.18 g/m*3 12.4 C 0 km/h
1350 02-06-2009 05:39:11 12.4 C 9.18 g/m*3 12.4 C 0 km/h
Sensor: Nr:Datum:Temp:Abs-Feuchte:Windchill:Wind:
Aussen-T/F 1351 02-06-2009 05:51:11 12.4 C 9.18 g/m*3 12.4 C 0 km/h
1352 02-06-2009 06:03:11 12.4 C 9.18 g/m*3 12.4 C 0 km/h
1353 02-06-2009 06:15:11 12.6 C 9.18 g/m*3 12.6 C 0 km/h
1354 02-06-2009 06:27:11 12.9 C 8.9 g/m*3 12.9 C 0 km/h
1355 02-06-2009 06:39:54 13.1 C 8.22 g/m*3 13.1 C 0 km/h
1356 02-06-2009 06:51:54 13.5 C 7.95 g/m*3 13.5 C 0 km/h
1357 02-06-2009 07:03:53 13.6 C 7.77 g/m*3 13.6 C 0 km/h
1358 02-06-2009 07:15:54 13.7 C 7.7 g/m*3 13.7 C 0 km/h
1359 02-06-2009 07:27:54 13.8 C 7.86 g/m*3 13.8 C 0 km/h
1360 02-06-2009 07:39:53 13.7 C 7.7 g/m*3 13.7 C 0 km/h
1361 02-06-2009 07:51:53 14 C 7.6 g/m*3 14 C 0 km/h
1362 02-06-2009 08:03:53 14.2 C 7.82 g/m*3 14.2 C 0 km/h
1363 02-06-2009 08:15:53 14.4 C 7.91 g/m*3 14.4 C 0 km/h
1364 02-06-2009 08:27:53 14.6 C 7.63 g/m*3 14.6 C 0 km/h
1365 02-06-2009 08:39:53 14.7 C 7.68 g/m*3 14.7 C 0 km/h
1366 02-06-2009 08:51:53 15.1 C 7.74 g/m*3 15.1 C 0 km/h
1367 02-06-2009 09:03:53 15.5 C 7.8 g/m*3 15.5 C 0 km/h
1368 02-06-2009 09:15:52 15.8 C 7.81 g/m*3 15.8 C 0 km/h
1369 02-06-2009 09:27:52 16 C 7.63 g/m*3 16 C 0 km/h
1370 02-06-2009 09:39:53 16.5 C 7.86 g/m*3 16.5 C 0 km/h
1371 02-06-2009 09:51:52 17 C 7.81 g/m*3 17 C 0 km/h
1372 02-06-2009 10:03:52 17.6 C 7.8 g/m*3 17.6 C 0 km/h
1373 02-06-2009 10:15:51 18 C 7.83 g/m*3 18 C 0 km/h
1374 02-06-2009 10:27:51 18.3 C 7.82 g/m*3 18.3 C 0 km/h
1375 02-06-2009 10:39:52 18.8 C 7.73 g/m*3 18.8 C 0 km/h
Sensor: Nr:Datum:Temp:Abs-Feuchte:Windchill:Wind:
Aussen-T/F 1376 02-06-2009 10:51:51 18.8 C 7.57 g/m*3 18.8 C 0 km/h
1377 02-06-2009 11:03:51 19.3 C 7.8 g/m*3 19.3 C 0 km/h
1378 02-06-2009 11:15:52 19.5 C 7.89 g/m*3 19.5 C 0 km/h
1379 02-06-2009 11:27:52 20.6 C 8.23 g/m*3 20.6 C 0 km/h
1380 02-06-2009 11:39:51 20.5 C 8.19 g/m*3 20.5 C 0 km/h
1381 02-06-2009 11:51:51 20.8 C 8.15 g/m*3 20.8 C 0 km/h
1382 02-06-2009 12:03:51 21.8 C 7.87 g/m*3 21.8 C 0 km/h
1383 02-06-2009 12:15:51 22.4 C 7.75 g/m*3 22.4 C 0 km/h
1384 02-06-2009 12:27:51 23.8 C 7.74 g/m*3 23.8 C 0 km/h
1385 02-06-2009 12:39:50 23.2 C 7.28 g/m*3 23.2 C 0 km/h
1386 02-06-2009 12:51:51 23.8 C 7.31 g/m*3 23.8 C 0 km/h
1387 02-06-2009 13:03:50 24.1 C 7 g/m*3 24.1 C 0 km/h
1388 02-06-2009 13:15:50 24.3 C 6.86 g/m*3 24.3 C 0 km/h
1389 02-06-2009 13:27:50 24.4 C 6.45 g/m*3 24.4 C 0 km/h
1390 02-06-2009 13:39:50 24.6 C 5.85 g/m*3 24.6 C 0 km/h
1391 02-06-2009 13:51:50 24.4 C 5.56 g/m*3 24.4 C 0 km/h
1392 02-06-2009 14:03:50 24.3 C 5.53 g/m*3 24.3 C 0 km/h
1393 02-06-2009 14:15:49 24.6 C 5.85 g/m*3 24.6 C 0 km/h
1394 02-06-2009 14:27:49 24 C 5.87 g/m*3 24 C 0 km/h
1395 02-06-2009 14:39:50 25.2 C 5.82 g/m*3 25.2 C 0 km/h
1396 02-06-2009 14:51:49 24.6 C 5.63 g/m*3 24.6 C 0 km/h
1397 02-06-2009 15:03:49 24.7 C 5.21 g/m*3 24.7 C 0 km/h
1398 02-06-2009 15:15:48 25.4 C 5.41 g/m*3 25.4 C 0 km/h
1399 02-06-2009 15:27:48 25.7 C 5.03 g/m*3 25.7 C 0 km/h
1400 02-06-2009 15:39:49 25.9 C 5.57 g/m*3 25.9 C 0 km/h
Sensor: Nr:Datum:Temp:Abs-Feuchte:Windchill:Wind:
Aussen-T/F 1401 02-06-2009 15:51:48 27 C 5.4 g/m*3 27 C 0 km/h
1402 02-06-2009 16:03:48 26.5 C 5.76 g/m*3 26.5 C 0 km/h
1403 02-06-2009 16:15:49 26 C 5.11 g/m*3 26 C 0 km/h
1404 02-06-2009 16:27:49 26.7 C 5.06 g/m*3 26.7 C 0 km/h
1405 02-06-2009 16:39:48 27.1 C 5.18 g/m*3 27.1 C 0 km/h
1406 02-06-2009 16:51:48 27 C 5.15 g/m*3 27 C 0 km/h
1407 02-06-2009 17:03:48 27.8 C 5.38 g/m*3 27.8 C 0 km/h
1408 02-06-2009 17:15:48 27.5 C 5.29 g/m*3 27.5 C 0 km/h
1409 02-06-2009 17:27:49 27.1 C 5.18 g/m*3 27.1 C 0 km/h
1410 02-06-2009 17:39:47 27.8 C 5.38 g/m*3 27.8 C 0 km/h
1411 02-06-2009 17:51:48 27.6 C 5.32 g/m*3 27.6 C 0 km/h
1412 02-06-2009 18:03:48 27.8 C 5.38 g/m*3 27.8 C 0 km/h
1413 02-06-2009 18:15:47 28.1 C 5.47 g/m*3 28.1 C 0 km/h
1414 02-06-2009 18:27:47 28.5 C 5.59 g/m*3 28.5 C 0 km/h
1415 02-06-2009 18:39:47 29.2 C 5.81 g/m*3 29.2 C 0 km/h
1416 02-06-2009 18:51:47 27.5 C 5.29 g/m*3 27.5 C 0 km/h
1417 02-06-2009 19:03:47 28.6 C 5.62 g/m*3 28.6 C 0 km/h
1418 02-06-2009 19:15:46 28.2 C 5.5 g/m*3 28.2 C 0 km/h
1419 02-06-2009 19:27:46 28.1 C 5.47 g/m*3 28.1 C 0 km/h
1420 02-06-2009 19:39:47 27.4 C 5.26 g/m*3 27.4 C 0 km/h
1421 02-06-2009 19:51:46 27.9 C 5.68 g/m*3 27.9 C 0 km/h
1422 02-06-2009 20:03:46 27.6 C 5.59 g/m*3 27.6 C 0 km/h
1423 02-06-2009 20:15:46 27.3 C 5.49 g/m*3 27.3 C 0 km/h
1424 02-06-2009 20:27:46 26.4 C 5.73 g/m*3 26.4 C 0 km/h
1425 02-06-2009 20:39:46 25.3 C 5.85 g/m*3 25.3 C 0 km/h
Sensor: Nr:Datum:Temp:Abs-Feuchte:Windchill:Wind:
Aussen-T/F 1426 02-06-2009 20:51:46 24.2 C 5.72 g/m*3 24.2 C 0 km/h
1427 02-06-2009 21:03:45 23.9 C 5.62 g/m*3 23.9 C 0 km/h
1428 02-06-2009 21:15:46 23.3 C 5.23 g/m*3 23.3 C 0 km/h
1429 02-06-2009 21:27:46 22.7 C 5.46 g/m*3 22.7 C 0 km/h
1430 02-06-2009 21:39:45 22.4 C 5.56 g/m*3 22.4 C 0 km/h
1431 02-06-2009 21:51:13 22.1 C 5.47 g/m*3 22.1 C 0 km/h
1432 02-06-2009 22:03:13 21.7 C 5.72 g/m*3 21.7 C 0 km/h
1433 02-06-2009 22:15:13 21.5 C 5.66 g/m*3 21.5 C 0 km/h
1434 02-06-2009 22:27:13 21.2 C 5.56 g/m*3 21.2 C 0 km/h
1435 02-06-2009 22:39:13 20.9 C 5.83 g/m*3 20.9 C 0 km/h
1436 02-06-2009 22:51:13 20.6 C 5.91 g/m*3 20.6 C 0 km/h
1437 02-06-2009 23:03:13 20.3 C 5.8 g/m*3 20.3 C 0 km/h
1438 02-06-2009 23:15:13 20.2 C 5.77 g/m*3 20.2 C 0 km/h
1439 02-06-2009 23:27:45 19.9 C 5.84 g/m*3 19.9 C 0 km/h
1440 02-06-2009 23:39:45 19.7 C 5.77 g/m*3 19.7 C 0 km/h
1441 02-06-2009 23:51:45 19.9 C 6.01 g/m*3 19.9 C 0 km/h
1442 03-06-2009 00:03:45 19.7 C 5.77 g/m*3 19.7 C 0 km/h
1443 03-06-2009 00:15:45 19.4 C 5.67 g/m*3 19.4 C 0 km/h
1444 03-06-2009 00:27:45 19 C 5.38 g/m*3 19 C 0 km/h
1445 03-06-2009 00:39:44 18.6 C 5.57 g/m*3 18.6 C 0 km/h
1446 03-06-2009 00:51:45 18.2 C 5.44 g/m*3 18.2 C 0 km/h
1447 03-06-2009 01:03:44 17.9 C 5.5 g/m*3 17.9 C 0 km/h
1448 03-06-2009 01:15:44 17.7 C 5.43 g/m*3 17.7 C 0 km/h
1449 03-06-2009 01:27:44 17.3 C 5.3 g/m*3 17.3 C 0 km/h
1450 03-06-2009 01:39:44 17.1 C 5.24 g/m*3 17.1 C 0 km/h
Sensor: Nr:Datum:Temp:Abs-Feuchte:Windchill:Wind:
Aussen-T/F 1451 03-06-2009 01:51:44 16.8 C 5.29 g/m*3 16.8 C 0 km/h
1452 03-06-2009 02:03:44 16.4 C 5.16 g/m*3 16.4 C 0 km/h
1453 03-06-2009 02:15:43 16 C 5.18 g/m*3 16 C 0 km/h
1454 03-06-2009 02:27:43 15.7 C 5.22 g/m*3 15.7 C 0 km/h
1455 03-06-2009 02:39:44 15.4 C 5.65 g/m*3 15.4 C 0 km/h
1456 03-06-2009 02:52:45 15.1 C 5.81 g/m*3 15.1 C 0 km/h
1457 03-06-2009 03:04:45 15 C 5.77 g/m*3 15 C 0 km/h
1458 03-06-2009 03:16:45 14.6 C 5.88 g/m*3 14.6 C 0 km/h
1459 03-06-2009 03:28:45 14.4 C 5.81 g/m*3 14.4 C 0 km/h
1460 03-06-2009 03:40:45 14.2 C 5.74 g/m*3 14.2 C 0 km/h
1461 03-06-2009 03:52:45 13.8 C 5.96 g/m*3 13.8 C 0 km/h
1462 03-06-2009 04:04:45 13.7 C 6.04 g/m*3 13.7 C 0 km/h
1463 03-06-2009 04:16:44 13.6 C 6 g/m*3 13.6 C 0 km/h
1464 03-06-2009 04:28:44 13.5 C 5.97 g/m*3 13.5 C 0 km/h
1465 03-06-2009 04:40:45 13.3 C 6.01 g/m*3 13.3 C 0 km/h
1466 03-06-2009 04:52:44 13.1 C 5.93 g/m*3 13.1 C 0 km/h
1467 03-06-2009 05:04:44 13 C 5.9 g/m*3 13 C 0 km/h
1468 03-06-2009 05:16:44 13 C 5.9 g/m*3 13 C 0 km/h
1469 03-06-2009 05:28:44 12.8 C 5.94 g/m*3 12.8 C 0 km/h
1470 03-06-2009 05:40:44 12.7 C 6.01 g/m*3 12.7 C 0 km/h
1471 03-06-2009 05:52:44 12.7 C 6.01 g/m*3 12.7 C 0 km/h
1472 03-06-2009 06:04:43 12.9 C 6.2 g/m*3 12.9 C 0 km/h
1473 03-06-2009 06:16:43 13 C 6.24 g/m*3 13 C 0 km/h
1474 03-06-2009 06:28:43 13 C 6.24 g/m*3 13 C 0 km/h
1475 03-06-2009 06:40:43 13 C 6.35 g/m*3 13 C 0 km/h
Sensor: Nr:Datum:Temp:Abs-Feuchte:Windchill:Wind:
Aussen-T/F 1476 03-06-2009 06:52:43 12.9 C 6.54 g/m*3 12.9 C 0 km/h
1477 03-06-2009 07:04:42 12.8 C 6.27 g/m*3 12.8 C 0 km/h
1478 03-06-2009 07:16:43 12.7 C 6.35 g/m*3 12.7 C 0 km/h
1479 03-06-2009 07:28:43 12.5 C 6.05 g/m*3 12.5 C 0 km/h
1480 03-06-2009 07:40:43 12.8 C 6.16 g/m*3 12.8 C 0 km/h
1481 03-06-2009 07:52:42 12.9 C 6.2 g/m*3 12.9 C 0 km/h
1482 03-06-2009 08:04:43 12.8 C 5.94 g/m*3 12.8 C 0 km/h
1483 03-06-2009 08:16:42 12.8 C 5.94 g/m*3 12.8 C 0 km/h
1484 03-06-2009 08:28:42 13 C 5.9 g/m*3 13 C 0 km/h
1485 03-06-2009 08:40:42 13 C 5.67 g/m*3 13 C 0 km/h
1486 03-06-2009 08:52:42 13.1 C 5.48 g/m*3 13.1 C 0 km/h
1487 03-06-2009 09:04:42 13.5 C 5.5 g/m*3 13.5 C 0 km/h
1488 03-06-2009 09:16:41 13.9 C 5.39 g/m*3 13.9 C 0 km/h
1489 03-06-2009 09:28:41 13.9 C 5.04 g/m*3 13.9 C 0 km/h
1490 03-06-2009 09:40:41 14.6 C 5.13 g/m*3 14.6 C 0 km/h
1491 03-06-2009 09:52:41 14.7 C 5.67 g/m*3 14.7 C 0 km/h
1492 03-06-2009 10:04:41 14.2 C 5.62 g/m*3 14.2 C 0 km/h
1493 03-06-2009 10:16:41 14.9 C 5.23 g/m*3 14.9 C 0 km/h
1494 03-06-2009 10:28:41 14.6 C 5.63 g/m*3 14.6 C 0 km/h
1495 03-06-2009 10:40:41 15 C 5.39 g/m*3 15 C 0 km/h
1496 03-06-2009 10:52:41 15.4 C 5.26 g/m*3 15.4 C 0 km/h
1497 03-06-2009 11:04:40 14.9 C 5.23 g/m*3 14.9 C 0 km/h
1498 03-06-2009 11:16:41 15.2 C 5.19 g/m*3 15.2 C 0 km/h
1499 03-06-2009 11:28:41 16 C 5.31 g/m*3 16 C 0 km/h
1500 03-06-2009 11:40:40 16.8 C 5.43 g/m*3 16.8 C 0 km/h
Sensor: Nr:Datum:Temp:Abs-Feuchte:Windchill:Wind:
Aussen-T/F 1501 03-06-2009 11:52:40 17 C 5.21 g/m*3 17 C 0 km/h
1502 03-06-2009 12:04:40 16.7 C 4.97 g/m*3 16.7 C 0 km/h
1503 03-06-2009 12:16:40 16.8 C 4.86 g/m*3 16.8 C 0 km/h
1504 03-06-2009 12:28:40 17.7 C 4.98 g/m*3 17.7 C 0 km/h
1505 03-06-2009 12:40:39 17.9 C 4.73 g/m*3 17.9 C 0 km/h
1506 03-06-2009 12:52:40 18.8 C 4.83 g/m*3 18.8 C 0 km/h
1507 03-06-2009 13:04:40 17.3 C 4.42 g/m*3 17.3 C 0 km/h
1508 03-06-2009 13:16:39 18.2 C 4.66 g/m*3 18.2 C 0 km/h
1509 03-06-2009 13:28:39 19.5 C 4.53 g/m*3 19.5 C 0 km/h
1510 03-06-2009 13:40:39 18.4 C 4.09 g/m*3 18.4 C 0 km/h
1511 03-06-2009 13:52:39 19.8 C 4.27 g/m*3 19.8 C 0 km/h
1512 03-06-2009 14:04:39 19.3 C 4.15 g/m*3 19.3 C 0 km/h
1513 03-06-2009 14:16:38 20.1 C 4.35 g/m*3 20.1 C 0 km/h
1514 03-06-2009 14:28:38 19.3 C 4.31 g/m*3 19.3 C 0 km/h
1515 03-06-2009 14:40:39 19.1 C 4.43 g/m*3 19.1 C 0 km/h
1516 03-06-2009 14:52:38 19.7 C 4.92 g/m*3 19.7 C 0 km/h
1517 03-06-2009 15:04:38 20.5 C 4.45 g/m*3 20.5 C 0 km/h
1518 03-06-2009 15:16:39 20 C 4.67 g/m*3 20 C 0 km/h
1519 03-06-2009 15:28:39 20.8 C 4.53 g/m*3 20.8 C 0 km/h
1520 03-06-2009 15:40:38 20.4 C 4.6 g/m*3 20.4 C 0 km/h
1521 03-06-2009 15:52:37 20.9 C 4.55 g/m*3 20.9 C 0 km/h
1522 03-06-2009 16:04:38 20.1 C 4.52 g/m*3 20.1 C 0 km/h
1523 03-06-2009 16:16:38 20.4 C 4.42 g/m*3 20.4 C 0 km/h
1524 03-06-2009 16:28:38 20.2 C 4.55 g/m*3 20.2 C 0 km/h
1525 03-06-2009 16:40:37 20.3 C 4.75 g/m*3 20.3 C 0 km/h
Sensor: Nr:Datum:Temp:Abs-Feuchte:Windchill:Wind:
Aussen-T/F 1526 03-06-2009 16:52:38 20 C 4.32 g/m*3 20 C 0 km/h
1527 03-06-2009 17:04:37 20.3 C 4.57 g/m*3 20.3 C 0 km/h
1528 03-06-2009 17:16:37 20.6 C 4.65 g/m*3 20.6 C 0 km/h
1529 03-06-2009 17:28:37 20.7 C 4.32 g/m*3 20.7 C 0 km/h
1530 03-06-2009 17:40:36 19.4 C 4.34 g/m*3 19.4 C 0 km/h
1531 03-06-2009 17:52:37 20.6 C 4.12 g/m*3 20.6 C 0 km/h
1532 03-06-2009 18:04:36 19.2 C 3.79 g/m*3 19.2 C 0 km/h
1533 03-06-2009 18:16:36 20.3 C 4.05 g/m*3 20.3 C 0 km/h
1534 03-06-2009 18:28:36 19.3 C 3.98 g/m*3 19.3 C 0 km/h
1535 03-06-2009 18:40:37 20 C 4.32 g/m*3 20 C 0 km/h
1536 03-06-2009 18:52:36 19 C 4.24 g/m*3 19 C 0 km/h
1537 03-06-2009 19:04:36 19.1 C 4.26 g/m*3 19.1 C 0 km/h
1538 03-06-2009 19:16:36 18.8 C 4.51 g/m*3 18.8 C 0 km/h
1539 03-06-2009 19:28:36 18.1 C 4.64 g/m*3 18.1 C 0 km/h
1540 03-06-2009 19:40:36 18 C 4.61 g/m*3 18 C 0 km/h
1541 03-06-2009 19:52:36 18 C 4.76 g/m*3 18 C 0 km/h
1542 03-06-2009 20:04:36 17.7 C 4.83 g/m*3 17.7 C 0 km/h
1543 03-06-2009 20:16:36 16.9 C 5.03 g/m*3 16.9 C 0 km/h
1544 03-06-2009 20:28:36 16.6 C 5.09 g/m*3 16.6 C 0 km/h
1545 03-06-2009 20:40:35 16.4 C 5.02 g/m*3 16.4 C 0 km/h
1546 03-06-2009 20:52:34 16.5 C 4.91 g/m*3 16.5 C 0 km/h
1547 03-06-2009 21:04:35 16.1 C 4.8 g/m*3 16.1 C 0 km/h
1548 03-06-2009 21:16:35 16 C 4.77 g/m*3 16 C 0 km/h
1549 03-06-2009 21:28:35 15.9 C 4.88 g/m*3 15.9 C 0 km/h
1550 03-06-2009 21:40:34 15.5 C 4.63 g/m*3 15.5 C 0 km/h
Sensor: Nr:Datum:Temp:Abs-Feuchte:Windchill:Wind:
Aussen-T/F 1551 03-06-2009 21:52:35 15.4 C 4.73 g/m*3 15.4 C 0 km/h
1552 03-06-2009 22:05:35 15.3 C 4.7 g/m*3 15.3 C 0 km/h
1553 03-06-2009 22:17:35 15.2 C 4.67 g/m*3 15.2 C 0 km/h
1554 03-06-2009 22:29:35 15 C 4.62 g/m*3 15 C 0 km/h
1555 03-06-2009 22:41:35 14.7 C 4.78 g/m*3 14.7 C 0 km/h
1556 03-06-2009 22:53:35 14.9 C 4.84 g/m*3 14.9 C 0 km/h
1557 03-06-2009 23:05:35 14.8 C 4.69 g/m*3 14.8 C 0 km/h
1558 03-06-2009 23:17:35 14.6 C 4.88 g/m*3 14.6 C 0 km/h
1559 03-06-2009 23:29:36 14.5 C 4.97 g/m*3 14.5 C 0 km/h
1560 03-06-2009 23:41:36 14.2 C 5.01 g/m*3 14.2 C 0 km/h
1561 03-06-2009 23:53:36 14 C 5.07 g/m*3 14 C 0 km/h
1562 04-06-2009 00:05:36 13.7 C 5.21 g/m*3 13.7 C 0 km/h
1563 04-06-2009 00:17:36 13.7 C 5.33 g/m*3 13.7 C 0 km/h
1564 04-06-2009 00:29:36 13.4 C 5.23 g/m*3 13.4 C 0 km/h
1565 04-06-2009 00:41:36 13.1 C 5.14 g/m*3 13.1 C 0 km/h
1566 04-06-2009 00:53:36 13 C 5.22 g/m*3 13 C 0 km/h
1567 04-06-2009 01:05:36 12.7 C 5.34 g/m*3 12.7 C 0 km/h
1568 04-06-2009 01:17:36 12.6 C 5.42 g/m*3 12.6 C 0 km/h
1569 04-06-2009 01:29:36 12.7 C 5.45 g/m*3 12.7 C 0 km/h
1570 04-06-2009 01:41:36 12.6 C 5.42 g/m*3 12.6 C 0 km/h
1571 04-06-2009 01:53:36 12.5 C 5.5 g/m*3 12.5 C 0 km/h
1572 04-06-2009 02:05:36 12.5 C 4.95 g/m*3 12.5 C 0 km/h
1573 04-06-2009 02:17:36 12.4 C 4.7 g/m*3 12.4 C 0 km/h
1574 04-06-2009 02:29:36 12 C 4.48 g/m*3 12 C 0 km/h
1575 04-06-2009 02:41:36 11.9 C 4.45 g/m*3 11.9 C 0 km/h
Sensor: Nr:Datum:Temp:Abs-Feuchte:Windchill:Wind:
Aussen-T/F 1576 04-06-2009 02:53:36 11.7 C 4.18 g/m*3 11.7 C 0 km/h
1577 04-06-2009 03:05:36 11.5 C 4.13 g/m*3 11.5 C 0 km/h
1578 04-06-2009 03:17:37 11.2 C 3.95 g/m*3 11.2 C 0 km/h
1579 04-06-2009 03:29:37 11 C 4 g/m*3 11 C 0 km/h
1580 04-06-2009 03:41:37 10.8 C 4.15 g/m*3 10.8 C 0 km/h
1581 04-06-2009 03:53:37 10.9 C 4.28 g/m*3 10.9 C 0 km/h
1582 04-06-2009 04:05:37 10.8 C 4.15 g/m*3 10.8 C 0 km/h
1583 04-06-2009 04:17:37 10.7 C 4.22 g/m*3 10.7 C 0 km/h
1584 04-06-2009 04:29:37 10.6 C 4.29 g/m*3 10.6 C 0 km/h
1585 04-06-2009 04:41:37 10.6 C 4.39 g/m*3 10.6 C 0 km/h
1586 04-06-2009 04:53:37 10.7 C 4.62 g/m*3 10.7 C 0 km/h
1587 04-06-2009 05:05:37 10.5 C 4.85 g/m*3 10.5 C 0 km/h
1588 04-06-2009 05:17:37 10.5 C 4.95 g/m*3 10.5 C 0 km/h
1589 04-06-2009 05:29:37 10.6 C 5.08 g/m*3 10.6 C 0 km/h
1590 04-06-2009 05:41:37 10.7 C 5.11 g/m*3 10.7 C 0 km/h
1591 04-06-2009 05:53:37 10.7 C 5.01 g/m*3 10.7 C 0 km/h
1592 04-06-2009 06:05:37 10.7 C 5.11 g/m*3 10.7 C 0 km/h
1593 04-06-2009 06:17:37 10.7 C 5.01 g/m*3 10.7 C 0 km/h
1594 04-06-2009 06:29:37 10.5 C 4.75 g/m*3 10.5 C 0 km/h
1595 04-06-2009 06:41:37 10.6 C 4.78 g/m*3 10.6 C 0 km/h
1596 04-06-2009 06:53:35 10.7 C 4.91 g/m*3 10.7 C 0 km/h
1597 04-06-2009 07:05:35 10.7 C 4.91 g/m*3 10.7 C 0 km/h
1598 04-06-2009 07:17:35 11 C 4.8 g/m*3 11 C 0 km/h
1599 04-06-2009 07:29:35 10.8 C 5.04 g/m*3 10.8 C 0 km/h
1600 04-06-2009 07:41:35 10.8 C 5.34 g/m*3 10.8 C 0 km/h
Sensor: Nr:Datum:Temp:Abs-Feuchte:Windchill:Wind:
Aussen-T/F 1601 04-06-2009 07:53:35 11 C 5.31 g/m*3 11 C 0 km/h
1602 04-06-2009 08:05:34 11.6 C 5.4 g/m*3 11.6 C 0 km/h
1603 04-06-2009 08:17:34 11.8 C 5.37 g/m*3 11.8 C 0 km/h
1604 04-06-2009 08:29:34 11.9 C 5.3 g/m*3 11.9 C 0 km/h
1605 04-06-2009 08:41:34 12.2 C 5.18 g/m*3 12.2 C 0 km/h
1606 04-06-2009 08:53:34 12.5 C 5.17 g/m*3 12.5 C 0 km/h
1607 04-06-2009 09:05:33 13 C 4.88 g/m*3 13 C 0 km/h
1608 04-06-2009 09:17:34 12.8 C 4.59 g/m*3 12.8 C 0 km/h
1609 04-06-2009 09:29:34 12.3 C 4.13 g/m*3 12.3 C 0 km/h
1610 04-06-2009 09:41:34 12.7 C 4.23 g/m*3 12.7 C 0 km/h
1611 04-06-2009 09:53:33 12.9 C 4.51 g/m*3 12.9 C 0 km/h
1612 04-06-2009 10:05:34 13 C 4.2 g/m*3 13 C 0 km/h
1613 04-06-2009 10:17:33 13.1 C 4.45 g/m*3 13.1 C 0 km/h
1614 04-06-2009 10:29:33 14.1 C 4.49 g/m*3 14.1 C 0 km/h
1615 04-06-2009 10:41:33 13.5 C 4.33 g/m*3 13.5 C 0 km/h
1616 04-06-2009 10:53:33 13.2 C 4.36 g/m*3 13.2 C 0 km/h
1617 04-06-2009 11:05:33 14 C 4.46 g/m*3 14 C 0 km/h
1618 04-06-2009 11:17:32 14.7 C 4.53 g/m*3 14.7 C 0 km/h
1619 04-06-2009 11:29:32 13.3 C 4.04 g/m*3 13.3 C 0 km/h
1620 04-06-2009 11:41:32 13.1 C 3.99 g/m*3 13.1 C 0 km/h
1621 04-06-2009 11:53:32 13.5 C 4.33 g/m*3 13.5 C 0 km/h
1622 04-06-2009 12:05:32 14.7 C 4.53 g/m*3 14.7 C 0 km/h
1623 04-06-2009 12:17:32 14.5 C 4.35 g/m*3 14.5 C 0 km/h
1624 04-06-2009 12:29:32 14.6 C 4.25 g/m*3 14.6 C 0 km/h
1625 04-06-2009 12:41:32 14.4 C 3.96 g/m*3 14.4 C 0 km/h
Sensor: Nr:Datum:Temp:Abs-Feuchte:Windchill:Wind:
Aussen-T/F 1626 04-06-2009 12:53:32 14.7 C 4.28 g/m*3 14.7 C 0 km/h
1627 04-06-2009 13:05:31 14.7 C 4.41 g/m*3 14.7 C 0 km/h
1628 04-06-2009 13:17:32 15.7 C 4.01 g/m*3 15.7 C 0 km/h
1629 04-06-2009 13:29:32 15.6 C 3.72 g/m*3 15.6 C 0 km/h
1630 04-06-2009 13:41:31 14.9 C 3.95 g/m*3 14.9 C 0 km/h
1631 04-06-2009 13:53:31 14.4 C 3.96 g/m*3 14.4 C 0 km/h
1632 04-06-2009 14:05:31 15.1 C 4.13 g/m*3 15.1 C 0 km/h
1633 04-06-2009 14:17:31 16.2 C 4.14 g/m*3 16.2 C 0 km/h
1634 04-06-2009 14:29:31 15.3 C 3.79 g/m*3 15.3 C 0 km/h
1635 04-06-2009 14:41:31 14.8 C 3.67 g/m*3 14.8 C 0 km/h
1636 04-06-2009 14:53:30 15.8 C 3.9 g/m*3 15.8 C 0 km/h
1637 04-06-2009 15:05:30 16.3 C 4.16 g/m*3 16.3 C 0 km/h
1638 04-06-2009 15:17:30 17.5 C 3.88 g/m*3 17.5 C 0 km/h
1639 04-06-2009 15:29:30 16.1 C 3.56 g/m*3 16.1 C 0 km/h
1640 04-06-2009 15:41:30 15.9 C 3.79 g/m*3 15.9 C 0 km/h
1641 04-06-2009 15:53:30 16.4 C 3.77 g/m*3 16.4 C 0 km/h
1642 04-06-2009 16:05:30 16.3 C 3.75 g/m*3 16.3 C 0 km/h
1643 04-06-2009 16:17:30 16.2 C 3.59 g/m*3 16.2 C 0 km/h
1644 04-06-2009 16:29:30 17.2 C 3.66 g/m*3 17.2 C 0 km/h
1645 04-06-2009 16:41:30 16.5 C 3.51 g/m*3 16.5 C 0 km/h
1646 04-06-2009 16:53:29 16.2 C 3.72 g/m*3 16.2 C 0 km/h
1647 04-06-2009 17:05:29 16.1 C 3.84 g/m*3 16.1 C 0 km/h
1648 04-06-2009 17:17:29 16.4 C 3.91 g/m*3 16.4 C 0 km/h
1649 04-06-2009 17:29:29 15.6 C 3.86 g/m*3 15.6 C 0 km/h
1650 04-06-2009 17:41:29 15.6 C 3.99 g/m*3 15.6 C 0 km/h
Sensor: Nr:Datum:Temp:Abs-Feuchte:Windchill:Wind:
Aussen-T/F 1651 04-06-2009 17:53:28 16.2 C 4.14 g/m*3 16.2 C 0 km/h
1652 04-06-2009 18:05:29 16 C 4.09 g/m*3 16 C 0 km/h
1653 04-06-2009 18:17:29 15.8 C 4.17 g/m*3 15.8 C 0 km/h
1654 04-06-2009 18:29:29 16.1 C 4.25 g/m*3 16.1 C 0 km/h
1655 04-06-2009 18:41:29 15.4 C 4.07 g/m*3 15.4 C 0 km/h
1656 04-06-2009 18:53:28 15.7 C 4.28 g/m*3 15.7 C 0 km/h
1657 04-06-2009 19:05:28 15.3 C 4.18 g/m*3 15.3 C 0 km/h
1658 04-06-2009 19:17:28 15.4 C 4.2 g/m*3 15.4 C 0 km/h
1659 04-06-2009 19:29:28 15.4 C 4.34 g/m*3 15.4 C 0 km/h
1660 04-06-2009 19:41:28 14.7 C 4.41 g/m*3 14.7 C 0 km/h
1661 04-06-2009 19:53:28 15.1 C 4.52 g/m*3 15.1 C 0 km/h
1662 04-06-2009 20:05:28 14.9 C 4.59 g/m*3 14.9 C 0 km/h
1663 04-06-2009 20:17:27 14.9 C 4.59 g/m*3 14.9 C 0 km/h
1664 04-06-2009 20:29:27 14.7 C 4.66 g/m*3 14.7 C 0 km/h
1665 04-06-2009 20:41:27 14.5 C 4.73 g/m*3 14.5 C 0 km/h
1666 04-06-2009 20:53:27 14.1 C 4.61 g/m*3 14.1 C 0 km/h
1667 04-06-2009 21:05:27 14 C 4.7 g/m*3 14 C 0 km/h
1668 04-06-2009 21:17:27 13.8 C 4.77 g/m*3 13.8 C 0 km/h
1669 04-06-2009 21:29:27 13.7 C 4.86 g/m*3 13.7 C 0 km/h
1670 04-06-2009 21:41:27 13.5 C 4.91 g/m*3 13.5 C 0 km/h
1671 04-06-2009 21:53:27 13.5 C 5.03 g/m*3 13.5 C 0 km/h
1672 04-06-2009 22:06:22 13.3 C 4.97 g/m*3 13.3 C 0 km/h
1673 04-06-2009 22:18:22 13.2 C 4.94 g/m*3 13.2 C 0 km/h
1674 04-06-2009 22:30:22 13 C 4.99 g/m*3 13 C 0 km/h
1675 04-06-2009 22:42:22 13 C 4.88 g/m*3 13 C 0 km/h
Sensor: Nr:Datum:Temp:Abs-Feuchte:Windchill:Wind:
Aussen-T/F 1676 04-06-2009 22:54:22 12.9 C 4.96 g/m*3 12.9 C 0 km/h
1677 04-06-2009 23:06:22 12.7 C 5.01 g/m*3 12.7 C 0 km/h
1678 04-06-2009 23:18:22 12.4 C 4.92 g/m*3 12.4 C 0 km/h
1679 04-06-2009 23:30:22 12.2 C 4.86 g/m*3 12.2 C 0 km/h
1680 04-06-2009 23:42:22 12.1 C 4.93 g/m*3 12.1 C 0 km/h
1681 04-06-2009 23:54:22 12 C 5.01 g/m*3 12 C 0 km/h

Legende:
   Min
   Max


Maximal/Minimal-Werte vom 22.05.2009 - 04.06.2009

Sensor Min Max Avg
Temp
(Aussen-T/F)
8.8 °C
23-05-2009  06:08:46
33.6 °C
25-05-2009  15:58:59
18.45 °C
Abs-Feuchte
(Aussen-T/F)
3.04 g/m*3
29-05-2009  11:23:28
12.92 g/m*3
25-05-2009  17:46:58
7.08 g/m*3
Windchill
(Aussen-T/F)
8.8 C
23-05-2009  06:08:46
33.6 C
25-05-2009  15:58:59
18.44 C

Die Daten stammen von einer Davis Vantage Pro 2 Wetter-Station und werden unter Linux mit der Software wview2wettercgi und aufbereitet. Alle Angaben erfolgen ohne Gewähr für ihre Vollständigkeit oder Richtigkeit.
Kontakt: Rainer Krienke krienke@uni-koblenz.de . Meine Webseiten an der Uni Koblenz oder privat.
Version: $Revision: 0.78 $